<?xml version="1.0" encoding="UTF-8"?>
<gpx version="1.1" creator="2bulu-scraper" xmlns="http://www.topografix.com/GPX/1/1">
  <metadata><name>宜宾江安仁和寨漏仓子</name><desc>source: 2bulu.com trackId=77282821; exported 2026-08-31T01:42:32.847Z</desc>
    <bounds minlat="28.5002541" minlon="105.1349466" maxlat="28.5216504" maxlon="105.1518199"/>
    <link href="https://www.2bulu.com/track/t-t2fuTU9LDP7p%252FR2KBg5Tzw%253D%253D.htm"><text>2bulu 源页面</text></link>
  </metadata>
  <wpt lat="28.5029183" lon="105.1425179"><ele>509</ele><name>
        </name></wpt>
  <wpt lat="28.5033787" lon="105.1425723"><ele>528</ele><name>
        </name></wpt>
  <wpt lat="28.5036739" lon="105.1432281"><ele>539</ele><name>
        </name></wpt>
  <wpt lat="28.5035574" lon="105.1433997"><ele>543</ele><name>
        </name></wpt>
  <wpt lat="28.5035574" lon="105.1433997"><ele>543</ele><name>
        </name></wpt>
  <wpt lat="28.5055008" lon="105.1403746"><ele>583</ele><name>
        </name></wpt>
  <wpt lat="28.506454" lon="105.1394759"><ele>601</ele><name>
        </name></wpt>
  <wpt lat="28.5080965" lon="105.1394334"><ele>645</ele><name>
        </name></wpt>
  <wpt lat="28.5080965" lon="105.1394334"><ele>645</ele><name>
        </name></wpt>
  <wpt lat="28.5081338" lon="105.1393141"><ele>640</ele><name>
        </name></wpt>
  <wpt lat="28.5090786" lon="105.1385884"><ele>611</ele><name>
        </name></wpt>
  <wpt lat="28.5093754" lon="105.137921"><ele>613</ele><name>
        </name></wpt>
  <wpt lat="28.513497" lon="105.1350298"><ele>625</ele><name>
        </name></wpt>
  <wpt lat="28.5155919" lon="105.1354393"><ele>595</ele><name>
        </name></wpt>
  <wpt lat="28.5155639" lon="105.1357377"><ele>591</ele><name>
        </name></wpt>
  <wpt lat="28.5197794" lon="105.1381493"><ele>590</ele><name>
        </name></wpt>
  <wpt lat="28.5197794" lon="105.1381493"><ele>590</ele><name>
        </name></wpt>
  <wpt lat="28.517571" lon="105.1459677"><ele>499</ele><name>
        </name></wpt>
  <wpt lat="28.5169768" lon="105.1454592"><ele>490</ele><name>
        </name></wpt>
  <wpt lat="28.5169768" lon="105.1454592"><ele>490</ele><name>
        </name></wpt>
  <wpt lat="28.5127068" lon="105.1436725"><ele>359</ele><name>
        </name></wpt>
  <wpt lat="28.5005336" lon="105.1434559"><ele>461</ele><name>
        </name></wpt>
  <trk><name>宜宾江安仁和寨漏仓子</name>
      <trkseg>
        <trkpt lat="28.5002541" lon="105.1433783"><ele>469.68</ele><time>2025-12-31T18:25:22.000Z</time></trkpt>
        <trkpt lat="28.5003425" lon="105.1433973"><ele>469.68</ele><time>2025-12-31T18:25:50.000Z</time></trkpt>
        <trkpt lat="28.5004212" lon="105.1434482"><ele>468.46</ele><time>2025-12-31T18:26:00.000Z</time></trkpt>
        <trkpt lat="28.5005054" lon="105.1435032"><ele>468.12</ele><time>2025-12-31T18:26:12.000Z</time></trkpt>
        <trkpt lat="28.5005814" lon="105.1435671"><ele>467</ele><time>2025-12-31T18:26:34.000Z</time></trkpt>
        <trkpt lat="28.5006606" lon="105.1436333"><ele>465.85</ele><time>2025-12-31T18:26:46.000Z</time></trkpt>
        <trkpt lat="28.500749" lon="105.1436903"><ele>465.77</ele><time>2025-12-31T18:26:58.000Z</time></trkpt>
        <trkpt lat="28.5008358" lon="105.143737"><ele>466.56</ele><time>2025-12-31T18:27:08.000Z</time></trkpt>
        <trkpt lat="28.500923" lon="105.1437905"><ele>467.51</ele><time>2025-12-31T18:27:20.000Z</time></trkpt>
        <trkpt lat="28.5009859" lon="105.1438691"><ele>468.93</ele><time>2025-12-31T18:27:36.000Z</time></trkpt>
        <trkpt lat="28.5010672" lon="105.1439181"><ele>469.96</ele><time>2025-12-31T18:27:46.000Z</time></trkpt>
        <trkpt lat="28.5011627" lon="105.143956"><ele>471.91</ele><time>2025-12-31T18:27:56.000Z</time></trkpt>
        <trkpt lat="28.5012562" lon="105.1439766"><ele>473.47</ele><time>2025-12-31T18:28:04.000Z</time></trkpt>
        <trkpt lat="28.5013553" lon="105.1440043"><ele>474.89</ele><time>2025-12-31T18:28:14.000Z</time></trkpt>
        <trkpt lat="28.501445" lon="105.1440462"><ele>475.94</ele><time>2025-12-31T18:28:22.000Z</time></trkpt>
        <trkpt lat="28.5015347" lon="105.1440659"><ele>476.04</ele><time>2025-12-31T18:28:30.000Z</time></trkpt>
        <trkpt lat="28.5016374" lon="105.1440445"><ele>475.36</ele><time>2025-12-31T18:28:40.000Z</time></trkpt>
        <trkpt lat="28.5017432" lon="105.1440267"><ele>474.88</ele><time>2025-12-31T18:28:50.000Z</time></trkpt>
        <trkpt lat="28.5018442" lon="105.1440228"><ele>474.55</ele><time>2025-12-31T18:29:00.000Z</time></trkpt>
        <trkpt lat="28.5019368" lon="105.1440183"><ele>474.19</ele><time>2025-12-31T18:29:12.000Z</time></trkpt>
        <trkpt lat="28.5020234" lon="105.1439712"><ele>474.41</ele><time>2025-12-31T18:29:22.000Z</time></trkpt>
        <trkpt lat="28.5020636" lon="105.1438798"><ele>474.6</ele><time>2025-12-31T18:29:30.000Z</time></trkpt>
        <trkpt lat="28.5020641" lon="105.1437637"><ele>475.07</ele><time>2025-12-31T18:29:42.000Z</time></trkpt>
        <trkpt lat="28.5020334" lon="105.143645"><ele>475.06</ele><time>2025-12-31T18:29:52.000Z</time></trkpt>
        <trkpt lat="28.502013" lon="105.1435301"><ele>475.58</ele><time>2025-12-31T18:30:02.000Z</time></trkpt>
        <trkpt lat="28.5020589" lon="105.1434358"><ele>475.72</ele><time>2025-12-31T18:30:14.000Z</time></trkpt>
        <trkpt lat="28.5021491" lon="105.1433842"><ele>475.58</ele><time>2025-12-31T18:30:28.000Z</time></trkpt>
        <trkpt lat="28.5022487" lon="105.1433654"><ele>476.41</ele><time>2025-12-31T18:30:40.000Z</time></trkpt>
        <trkpt lat="28.5023522" lon="105.1433709"><ele>478</ele><time>2025-12-31T18:30:52.000Z</time></trkpt>
        <trkpt lat="28.5024518" lon="105.1433896"><ele>479.86</ele><time>2025-12-31T18:31:06.000Z</time></trkpt>
        <trkpt lat="28.5025416" lon="105.143364"><ele>480.42</ele><time>2025-12-31T18:31:20.000Z</time></trkpt>
        <trkpt lat="28.5025828" lon="105.1432689"><ele>482.14</ele><time>2025-12-31T18:31:52.000Z</time></trkpt>
        <trkpt lat="28.5025989" lon="105.1431556"><ele>485.53</ele><time>2025-12-31T18:32:06.000Z</time></trkpt>
        <trkpt lat="28.5026431" lon="105.1430585"><ele>487.98</ele><time>2025-12-31T18:32:16.000Z</time></trkpt>
        <trkpt lat="28.5027231" lon="105.1429924"><ele>488.56</ele><time>2025-12-31T18:32:28.000Z</time></trkpt>
        <trkpt lat="28.5028207" lon="105.1429731"><ele>489.33</ele><time>2025-12-31T18:32:40.000Z</time></trkpt>
        <trkpt lat="28.5029249" lon="105.1429696"><ele>490.28</ele><time>2025-12-31T18:32:52.000Z</time></trkpt>
        <trkpt lat="28.5030223" lon="105.1429381"><ele>491.67</ele><time>2025-12-31T18:33:04.000Z</time></trkpt>
        <trkpt lat="28.503098" lon="105.1428666"><ele>493.93</ele><time>2025-12-31T18:33:18.000Z</time></trkpt>
        <trkpt lat="28.5031083" lon="105.1427623"><ele>495.51</ele><time>2025-12-31T18:33:40.000Z</time></trkpt>
        <trkpt lat="28.5030649" lon="105.1426576"><ele>496.61</ele><time>2025-12-31T18:33:50.000Z</time></trkpt>
        <trkpt lat="28.502989" lon="105.1425616"><ele>498.91</ele><time>2025-12-31T18:34:02.000Z</time></trkpt>
        <trkpt lat="28.5029183" lon="105.1425179"><ele>502.36</ele><time>2025-12-31T18:34:14.000Z</time></trkpt>
        <trkpt lat="28.5028396" lon="105.1424683"><ele>505.42</ele><time>2025-12-31T18:34:28.000Z</time></trkpt>
        <trkpt lat="28.5027594" lon="105.1424057"><ele>506.87</ele><time>2025-12-31T18:34:38.000Z</time></trkpt>
        <trkpt lat="28.5027278" lon="105.1423038"><ele>508.48</ele><time>2025-12-31T18:34:48.000Z</time></trkpt>
        <trkpt lat="28.5027724" lon="105.1422194"><ele>508.98</ele><time>2025-12-31T18:34:58.000Z</time></trkpt>
        <trkpt lat="28.5028424" lon="105.1421424"><ele>506.86</ele><time>2025-12-31T18:35:08.000Z</time></trkpt>
        <trkpt lat="28.5029285" lon="105.1420762"><ele>504.18</ele><time>2025-12-31T18:35:20.000Z</time></trkpt>
        <trkpt lat="28.5030351" lon="105.1420442"><ele>502.23</ele><time>2025-12-31T18:35:32.000Z</time></trkpt>
        <trkpt lat="28.5031421" lon="105.142024"><ele>500.21</ele><time>2025-12-31T18:35:42.000Z</time></trkpt>
        <trkpt lat="28.5032363" lon="105.1419708"><ele>498.67</ele><time>2025-12-31T18:35:52.000Z</time></trkpt>
        <trkpt lat="28.5033016" lon="105.1418889"><ele>500.05</ele><time>2025-12-31T18:36:02.000Z</time></trkpt>
        <trkpt lat="28.5033463" lon="105.1417804"><ele>502.05</ele><time>2025-12-31T18:36:14.000Z</time></trkpt>
        <trkpt lat="28.5034013" lon="105.1416823"><ele>504.33</ele><time>2025-12-31T18:36:26.000Z</time></trkpt>
        <trkpt lat="28.5034824" lon="105.1416642"><ele>506.18</ele><time>2025-12-31T18:36:38.000Z</time></trkpt>
        <trkpt lat="28.5035655" lon="105.1417033"><ele>507.58</ele><time>2025-12-31T18:36:50.000Z</time></trkpt>
        <trkpt lat="28.5036356" lon="105.1417898"><ele>509.55</ele><time>2025-12-31T18:37:02.000Z</time></trkpt>
        <trkpt lat="28.5037008" lon="105.1418794"><ele>512.38</ele><time>2025-12-31T18:37:18.000Z</time></trkpt>
        <trkpt lat="28.5036876" lon="105.141983"><ele>514.6</ele><time>2025-12-31T18:37:32.000Z</time></trkpt>
        <trkpt lat="28.5036183" lon="105.1420735"><ele>515.54</ele><time>2025-12-31T18:37:48.000Z</time></trkpt>
        <trkpt lat="28.5035272" lon="105.1421428"><ele>515.86</ele><time>2025-12-31T18:38:02.000Z</time></trkpt>
        <trkpt lat="28.5034301" lon="105.1421918"><ele>516.48</ele><time>2025-12-31T18:38:14.000Z</time></trkpt>
        <trkpt lat="28.5033379" lon="105.1422386"><ele>517.24</ele><time>2025-12-31T18:38:26.000Z</time></trkpt>
        <trkpt lat="28.5032591" lon="105.1422993"><ele>519.16</ele><time>2025-12-31T18:38:38.000Z</time></trkpt>
        <trkpt lat="28.5032546" lon="105.1423967"><ele>520.9</ele><time>2025-12-31T18:38:54.000Z</time></trkpt>
        <trkpt lat="28.5033034" lon="105.1424942"><ele>521.75</ele><time>2025-12-31T18:39:08.000Z</time></trkpt>
        <trkpt lat="28.5033787" lon="105.1425723"><ele>523.32</ele><time>2025-12-31T18:39:22.000Z</time></trkpt>
        <trkpt lat="28.5034753" lon="105.1426037"><ele>525.31</ele><time>2025-12-31T18:39:42.000Z</time></trkpt>
        <trkpt lat="28.5035627" lon="105.1426585"><ele>528.59</ele><time>2025-12-31T18:40:04.000Z</time></trkpt>
        <trkpt lat="28.5036547" lon="105.1427068"><ele>532.81</ele><time>2025-12-31T18:40:16.000Z</time></trkpt>
        <trkpt lat="28.503747" lon="105.1427555"><ele>536.23</ele><time>2025-12-31T18:40:28.000Z</time></trkpt>
        <trkpt lat="28.5038183" lon="105.1428348"><ele>538.48</ele><time>2025-12-31T18:40:48.000Z</time></trkpt>
        <trkpt lat="28.5038508" lon="105.1429384"><ele>538.55</ele><time>2025-12-31T18:41:12.000Z</time></trkpt>
        <trkpt lat="28.5038225" lon="105.1430458"><ele>542.44</ele><time>2025-12-31T18:41:24.000Z</time></trkpt>
        <trkpt lat="28.5037562" lon="105.1431415"><ele>543.48</ele><time>2025-12-31T18:41:36.000Z</time></trkpt>
        <trkpt lat="28.5036739" lon="105.1432281"><ele>542.77</ele><time>2025-12-31T18:41:48.000Z</time></trkpt>
        <trkpt lat="28.5036067" lon="105.1433277"><ele>541.1</ele><time>2025-12-31T18:42:06.000Z</time></trkpt>
        <trkpt lat="28.5035574" lon="105.1433997"><ele>540.75</ele><time>2025-12-31T18:42:14.000Z</time></trkpt>
        <trkpt lat="28.5035258" lon="105.1434886"><ele>541.62</ele><time>2025-12-31T18:42:46.000Z</time></trkpt>
        <trkpt lat="28.50351" lon="105.143515"><ele>542.95</ele><time>2025-12-31T18:42:50.000Z</time></trkpt>
        <trkpt lat="28.5034889" lon="105.1435943"><ele>543.81</ele><time>2025-12-31T18:43:24.000Z</time></trkpt>
        <trkpt lat="28.5034743" lon="105.1436946"><ele>545.59</ele><time>2025-12-31T18:44:06.000Z</time></trkpt>
        <trkpt lat="28.5034938" lon="105.1437994"><ele>546.86</ele><time>2025-12-31T18:44:26.000Z</time></trkpt>
        <trkpt lat="28.5035639" lon="105.1437856"><ele>548.83</ele><time>2025-12-31T18:44:46.000Z</time></trkpt>
        <trkpt lat="28.5036387" lon="105.1437015"><ele>550.67</ele><time>2025-12-31T18:45:04.000Z</time></trkpt>
        <trkpt lat="28.5037142" lon="105.1436052"><ele>554.47</ele><time>2025-12-31T18:45:18.000Z</time></trkpt>
        <trkpt lat="28.5037715" lon="105.1434931"><ele>557.7</ele><time>2025-12-31T18:45:38.000Z</time></trkpt>
        <trkpt lat="28.5038358" lon="105.1433951"><ele>559.54</ele><time>2025-12-31T18:45:52.000Z</time></trkpt>
        <trkpt lat="28.5038987" lon="105.143303"><ele>560.92</ele><time>2025-12-31T18:46:04.000Z</time></trkpt>
        <trkpt lat="28.5039718" lon="105.1432265"><ele>562.16</ele><time>2025-12-31T18:46:16.000Z</time></trkpt>
        <trkpt lat="28.5040491" lon="105.1431592"><ele>562.97</ele><time>2025-12-31T18:46:30.000Z</time></trkpt>
        <trkpt lat="28.5041236" lon="105.1430946"><ele>563.75</ele><time>2025-12-31T18:46:42.000Z</time></trkpt>
        <trkpt lat="28.5041785" lon="105.1430119"><ele>565.05</ele><time>2025-12-31T18:46:56.000Z</time></trkpt>
        <trkpt lat="28.5042287" lon="105.142923"><ele>566</ele><time>2025-12-31T18:47:10.000Z</time></trkpt>
        <trkpt lat="28.504279" lon="105.1428357"><ele>567.21</ele><time>2025-12-31T18:47:28.000Z</time></trkpt>
        <trkpt lat="28.5043314" lon="105.142736"><ele>568.04</ele><time>2025-12-31T18:49:30.000Z</time></trkpt>
        <trkpt lat="28.5043926" lon="105.14265"><ele>565.42</ele><time>2025-12-31T18:49:46.000Z</time></trkpt>
        <trkpt lat="28.5044369" lon="105.1425476"><ele>566.4</ele><time>2025-12-31T18:49:58.000Z</time></trkpt>
        <trkpt lat="28.5044891" lon="105.142447"><ele>566.15</ele><time>2025-12-31T18:50:10.000Z</time></trkpt>
        <trkpt lat="28.5045365" lon="105.1423549"><ele>566.56</ele><time>2025-12-31T18:50:22.000Z</time></trkpt>
        <trkpt lat="28.5045681" lon="105.142249"><ele>567.55</ele><time>2025-12-31T18:50:46.000Z</time></trkpt>
        <trkpt lat="28.5045919" lon="105.1421428"><ele>569.13</ele><time>2025-12-31T18:50:56.000Z</time></trkpt>
        <trkpt lat="28.5046419" lon="105.1420539"><ele>570.53</ele><time>2025-12-31T18:51:06.000Z</time></trkpt>
        <trkpt lat="28.5047004" lon="105.1419625"><ele>572.39</ele><time>2025-12-31T18:51:14.000Z</time></trkpt>
        <trkpt lat="28.504754" lon="105.1418568"><ele>573.78</ele><time>2025-12-31T18:51:24.000Z</time></trkpt>
        <trkpt lat="28.5047615" lon="105.1418085"><ele>574.7</ele><time>2025-12-31T18:51:30.000Z</time></trkpt>
        <trkpt lat="28.5048094" lon="105.1417495"><ele>575.52</ele><time>2025-12-31T18:51:42.000Z</time></trkpt>
        <trkpt lat="28.5048336" lon="105.1416951"><ele>574.82</ele><time>2025-12-31T18:51:52.000Z</time></trkpt>
        <trkpt lat="28.5048829" lon="105.1416085"><ele>576</ele><time>2025-12-31T18:58:40.000Z</time></trkpt>
        <trkpt lat="28.5049175" lon="105.1415141"><ele>574.37</ele><time>2025-12-31T18:58:52.000Z</time></trkpt>
        <trkpt lat="28.5049613" lon="105.1414141"><ele>573.18</ele><time>2025-12-31T18:59:38.000Z</time></trkpt>
        <trkpt lat="28.5050088" lon="105.1413165"><ele>572.43</ele><time>2025-12-31T18:59:53.000Z</time></trkpt>
        <trkpt lat="28.5050679" lon="105.1412307"><ele>572.13</ele><time>2025-12-31T19:00:07.000Z</time></trkpt>
        <trkpt lat="28.5051187" lon="105.1411333"><ele>572.18</ele><time>2025-12-31T19:00:21.000Z</time></trkpt>
        <trkpt lat="28.5051398" lon="105.1410216"><ele>572.3</ele><time>2025-12-31T19:00:35.000Z</time></trkpt>
        <trkpt lat="28.5051541" lon="105.1409056"><ele>574.16</ele><time>2025-12-31T19:00:47.000Z</time></trkpt>
        <trkpt lat="28.505186" lon="105.1407927"><ele>575.52</ele><time>2025-12-31T19:01:05.000Z</time></trkpt>
        <trkpt lat="28.5052351" lon="105.1406924"><ele>576.44</ele><time>2025-12-31T19:01:17.000Z</time></trkpt>
        <trkpt lat="28.5053031" lon="105.1406111"><ele>575.1</ele><time>2025-12-31T19:01:39.000Z</time></trkpt>
        <trkpt lat="28.5053805" lon="105.1405402"><ele>573.84</ele><time>2025-12-31T19:01:51.000Z</time></trkpt>
        <trkpt lat="28.5054505" lon="105.1404654"><ele>575.15</ele><time>2025-12-31T19:02:03.000Z</time></trkpt>
        <trkpt lat="28.5055008" lon="105.1403746"><ele>577.76</ele><time>2025-12-31T19:02:13.000Z</time></trkpt>
        <trkpt lat="28.5055644" lon="105.1402937"><ele>579.8</ele><time>2025-12-31T19:02:33.000Z</time></trkpt>
        <trkpt lat="28.5056371" lon="105.1402281"><ele>579.48</ele><time>2025-12-31T19:02:45.000Z</time></trkpt>
        <trkpt lat="28.5057099" lon="105.1401487"><ele>580.3</ele><time>2025-12-31T19:02:59.000Z</time></trkpt>
        <trkpt lat="28.505785" lon="105.1400788"><ele>582.27</ele><time>2025-12-31T19:03:11.000Z</time></trkpt>
        <trkpt lat="28.5058591" lon="105.1400028"><ele>584.18</ele><time>2025-12-31T19:03:25.000Z</time></trkpt>
        <trkpt lat="28.5059359" lon="105.1399374"><ele>587.02</ele><time>2025-12-31T19:03:43.000Z</time></trkpt>
        <trkpt lat="28.5060166" lon="105.1398718"><ele>590.73</ele><time>2025-12-31T19:03:57.000Z</time></trkpt>
        <trkpt lat="28.5060963" lon="105.1398048"><ele>594.18</ele><time>2025-12-31T19:04:11.000Z</time></trkpt>
        <trkpt lat="28.5061748" lon="105.1397432"><ele>596.09</ele><time>2025-12-31T19:04:27.000Z</time></trkpt>
        <trkpt lat="28.5062332" lon="105.1396541"><ele>597.05</ele><time>2025-12-31T19:04:41.000Z</time></trkpt>
        <trkpt lat="28.5062882" lon="105.1395659"><ele>597.73</ele><time>2025-12-31T19:04:53.000Z</time></trkpt>
        <trkpt lat="28.5063667" lon="105.1395059"><ele>597.98</ele><time>2025-12-31T19:05:07.000Z</time></trkpt>
        <trkpt lat="28.506454" lon="105.1394759"><ele>597.74</ele><time>2025-12-31T19:05:23.000Z</time></trkpt>
        <trkpt lat="28.5065372" lon="105.1395287"><ele>599.34</ele><time>2025-12-31T19:05:51.000Z</time></trkpt>
        <trkpt lat="28.5066078" lon="105.1396218"><ele>600.53</ele><time>2025-12-31T19:06:13.000Z</time></trkpt>
        <trkpt lat="28.5066922" lon="105.1396839"><ele>604.26</ele><time>2025-12-31T19:06:39.000Z</time></trkpt>
        <trkpt lat="28.5067816" lon="105.1397045"><ele>609.51</ele><time>2025-12-31T19:07:05.000Z</time></trkpt>
        <trkpt lat="28.5068071" lon="105.139706"><ele>615.13</ele><time>2025-12-31T19:07:07.000Z</time></trkpt>
        <trkpt lat="28.506862" lon="105.1396573"><ele>618.42</ele><time>2025-12-31T19:07:37.000Z</time></trkpt>
        <trkpt lat="28.5069258" lon="105.1395812"><ele>620.12</ele><time>2025-12-31T19:08:19.000Z</time></trkpt>
        <trkpt lat="28.5070064" lon="105.1395223"><ele>622.01</ele><time>2025-12-31T19:08:53.000Z</time></trkpt>
        <trkpt lat="28.5071031" lon="105.1395016"><ele>622.59</ele><time>2025-12-31T19:09:11.000Z</time></trkpt>
        <trkpt lat="28.5072028" lon="105.1394978"><ele>622.85</ele><time>2025-12-31T19:09:29.000Z</time></trkpt>
        <trkpt lat="28.5072992" lon="105.1395022"><ele>623.12</ele><time>2025-12-31T19:09:55.000Z</time></trkpt>
        <trkpt lat="28.5073954" lon="105.1395269"><ele>623.45</ele><time>2025-12-31T19:10:15.000Z</time></trkpt>
        <trkpt lat="28.5074874" lon="105.1395444"><ele>625.27</ele><time>2025-12-31T19:10:37.000Z</time></trkpt>
        <trkpt lat="28.5075805" lon="105.1395347"><ele>629.11</ele><time>2025-12-31T19:10:55.000Z</time></trkpt>
        <trkpt lat="28.5076706" lon="105.1394931"><ele>631.64</ele><time>2025-12-31T19:11:15.000Z</time></trkpt>
        <trkpt lat="28.5077618" lon="105.1394933"><ele>632.83</ele><time>2025-12-31T19:11:31.000Z</time></trkpt>
        <trkpt lat="28.5078511" lon="105.1395213"><ele>633.67</ele><time>2025-12-31T19:11:49.000Z</time></trkpt>
        <trkpt lat="28.5079445" lon="105.1395217"><ele>633.92</ele><time>2025-12-31T19:12:29.000Z</time></trkpt>
        <trkpt lat="28.5080363" lon="105.139513"><ele>639.37</ele><time>2025-12-31T19:12:51.000Z</time></trkpt>
        <trkpt lat="28.5080965" lon="105.1394334"><ele>643.2</ele><time>2025-12-31T19:13:09.000Z</time></trkpt>
        <trkpt lat="28.5081338" lon="105.1393141"><ele>644.1</ele><time>2025-12-31T19:14:33.000Z</time></trkpt>
        <trkpt lat="28.5082047" lon="105.1392407"><ele>642.37</ele><time>2025-12-31T19:16:15.000Z</time></trkpt>
        <trkpt lat="28.5082913" lon="105.1392115"><ele>637.41</ele><time>2025-12-31T19:16:33.000Z</time></trkpt>
        <trkpt lat="28.5083827" lon="105.1391612"><ele>632.68</ele><time>2025-12-31T19:17:31.000Z</time></trkpt>
        <trkpt lat="28.5084745" lon="105.1391363"><ele>628.98</ele><time>2025-12-31T19:20:25.000Z</time></trkpt>
        <trkpt lat="28.508575" lon="105.1391371"><ele>625.75</ele><time>2025-12-31T19:20:41.000Z</time></trkpt>
        <trkpt lat="28.5086623" lon="105.1390998"><ele>622.46</ele><time>2025-12-31T19:21:07.000Z</time></trkpt>
        <trkpt lat="28.5087527" lon="105.1390735"><ele>619.89</ele><time>2025-12-31T19:21:23.000Z</time></trkpt>
        <trkpt lat="28.5088475" lon="105.1390576"><ele>618.5</ele><time>2025-12-31T19:21:35.000Z</time></trkpt>
        <trkpt lat="28.5089384" lon="105.1390232"><ele>618.33</ele><time>2025-12-31T19:21:51.000Z</time></trkpt>
        <trkpt lat="28.5089843" lon="105.1389314"><ele>617.94</ele><time>2025-12-31T19:22:03.000Z</time></trkpt>
        <trkpt lat="28.5089833" lon="105.1388145"><ele>618.01</ele><time>2025-12-31T19:22:17.000Z</time></trkpt>
        <trkpt lat="28.508957" lon="105.1387039"><ele>618.25</ele><time>2025-12-31T19:22:29.000Z</time></trkpt>
        <trkpt lat="28.5089309" lon="105.1385973"><ele>617.62</ele><time>2025-12-31T19:23:03.000Z</time></trkpt>
        <trkpt lat="28.5089868" lon="105.138592"><ele>616.7</ele><time>2025-12-31T19:23:21.000Z</time></trkpt>
        <trkpt lat="28.5090786" lon="105.1385884"><ele>616.19</ele><time>2025-12-31T19:23:31.000Z</time></trkpt>
        <trkpt lat="28.5091327" lon="105.1385822"><ele>614.1</ele><time>2025-12-31T19:23:37.000Z</time></trkpt>
        <trkpt lat="28.509207" lon="105.1385431"><ele>611.46</ele><time>2025-12-31T19:23:47.000Z</time></trkpt>
        <trkpt lat="28.5092941" lon="105.1385123"><ele>609.16</ele><time>2025-12-31T19:23:57.000Z</time></trkpt>
        <trkpt lat="28.5093864" lon="105.1384829"><ele>607.66</ele><time>2025-12-31T19:24:07.000Z</time></trkpt>
        <trkpt lat="28.5094851" lon="105.1384691"><ele>606.9</ele><time>2025-12-31T19:24:25.000Z</time></trkpt>
        <trkpt lat="28.5093845" lon="105.1384821"><ele>605.43</ele><time>2025-12-31T19:27:13.000Z</time></trkpt>
        <trkpt lat="28.5092888" lon="105.1385021"><ele>604.36</ele><time>2025-12-31T19:27:25.000Z</time></trkpt>
        <trkpt lat="28.5091969" lon="105.1385493"><ele>604.19</ele><time>2025-12-31T19:27:49.000Z</time></trkpt>
        <trkpt lat="28.509105" lon="105.1386021"><ele>604.7</ele><time>2025-12-31T19:28:05.000Z</time></trkpt>
        <trkpt lat="28.5090105" lon="105.1386301"><ele>605.77</ele><time>2025-12-31T19:28:23.000Z</time></trkpt>
        <trkpt lat="28.5089158" lon="105.1386326"><ele>607.98</ele><time>2025-12-31T19:28:39.000Z</time></trkpt>
        <trkpt lat="28.5089189" lon="105.1385537"><ele>611.01</ele><time>2025-12-31T19:28:51.000Z</time></trkpt>
        <trkpt lat="28.5089839" lon="105.1384654"><ele>611.65</ele><time>2025-12-31T19:29:03.000Z</time></trkpt>
        <trkpt lat="28.5090571" lon="105.138364"><ele>610.91</ele><time>2025-12-31T19:29:17.000Z</time></trkpt>
        <trkpt lat="28.5091157" lon="105.1382646"><ele>610.47</ele><time>2025-12-31T19:29:31.000Z</time></trkpt>
        <trkpt lat="28.5091651" lon="105.1381636"><ele>610.58</ele><time>2025-12-31T19:29:44.000Z</time></trkpt>
        <trkpt lat="28.5092208" lon="105.1380609"><ele>611.36</ele><time>2025-12-31T19:30:00.000Z</time></trkpt>
        <trkpt lat="28.5092895" lon="105.1379726"><ele>611.54</ele><time>2025-12-31T19:30:14.000Z</time></trkpt>
        <trkpt lat="28.5093754" lon="105.137921"><ele>612.71</ele><time>2025-12-31T19:30:28.000Z</time></trkpt>
        <trkpt lat="28.5094698" lon="105.1378872"><ele>613.04</ele><time>2025-12-31T19:33:45.000Z</time></trkpt>
        <trkpt lat="28.5095162" lon="105.1377937"><ele>616.99</ele><time>2025-12-31T19:34:25.000Z</time></trkpt>
        <trkpt lat="28.5094979" lon="105.1376953"><ele>618.65</ele><time>2025-12-31T19:34:37.000Z</time></trkpt>
        <trkpt lat="28.5095006" lon="105.1375771"><ele>620.06</ele><time>2025-12-31T19:34:49.000Z</time></trkpt>
        <trkpt lat="28.5095229" lon="105.137471"><ele>621.97</ele><time>2025-12-31T19:35:01.000Z</time></trkpt>
        <trkpt lat="28.5095489" lon="105.1373636"><ele>623.63</ele><time>2025-12-31T19:35:13.000Z</time></trkpt>
        <trkpt lat="28.5095437" lon="105.1372551"><ele>625.92</ele><time>2025-12-31T19:35:29.000Z</time></trkpt>
        <trkpt lat="28.5095518" lon="105.1371456"><ele>628</ele><time>2025-12-31T19:35:41.000Z</time></trkpt>
        <trkpt lat="28.5095939" lon="105.137052"><ele>628.31</ele><time>2025-12-31T19:36:19.000Z</time></trkpt>
        <trkpt lat="28.5096665" lon="105.13699"><ele>627.46</ele><time>2025-12-31T19:36:47.000Z</time></trkpt>
        <trkpt lat="28.5097587" lon="105.1369495"><ele>625.32</ele><time>2025-12-31T19:37:03.000Z</time></trkpt>
        <trkpt lat="28.5098575" lon="105.1369125"><ele>622.65</ele><time>2025-12-31T19:37:17.000Z</time></trkpt>
        <trkpt lat="28.509961" lon="105.1368931"><ele>619.32</ele><time>2025-12-31T19:37:31.000Z</time></trkpt>
        <trkpt lat="28.5100648" lon="105.136883"><ele>618.08</ele><time>2025-12-31T19:37:43.000Z</time></trkpt>
        <trkpt lat="28.51015" lon="105.1368266"><ele>616.95</ele><time>2025-12-31T19:38:21.000Z</time></trkpt>
        <trkpt lat="28.5102156" lon="105.1367891"><ele>615.26</ele><time>2025-12-31T19:38:35.000Z</time></trkpt>
        <trkpt lat="28.510272" lon="105.1367182"><ele>614.9</ele><time>2025-12-31T19:38:59.000Z</time></trkpt>
        <trkpt lat="28.5103271" lon="105.1366302"><ele>616.42</ele><time>2025-12-31T19:39:11.000Z</time></trkpt>
        <trkpt lat="28.5104003" lon="105.1365491"><ele>616.98</ele><time>2025-12-31T19:39:21.000Z</time></trkpt>
        <trkpt lat="28.5104776" lon="105.1364858"><ele>617.62</ele><time>2025-12-31T19:39:31.000Z</time></trkpt>
        <trkpt lat="28.510534" lon="105.1364041"><ele>618.75</ele><time>2025-12-31T19:39:43.000Z</time></trkpt>
        <trkpt lat="28.5105618" lon="105.1362942"><ele>620.92</ele><time>2025-12-31T19:39:55.000Z</time></trkpt>
        <trkpt lat="28.5106187" lon="105.1362074"><ele>621.31</ele><time>2025-12-31T19:40:07.000Z</time></trkpt>
        <trkpt lat="28.5106997" lon="105.1361588"><ele>621.49</ele><time>2025-12-31T19:40:21.000Z</time></trkpt>
        <trkpt lat="28.5107957" lon="105.1361462"><ele>621.28</ele><time>2025-12-31T19:40:41.000Z</time></trkpt>
        <trkpt lat="28.510886" lon="105.1361202"><ele>624.05</ele><time>2025-12-31T19:40:53.000Z</time></trkpt>
        <trkpt lat="28.5109818" lon="105.1361147"><ele>626.11</ele><time>2025-12-31T19:41:05.000Z</time></trkpt>
        <trkpt lat="28.5110855" lon="105.1360992"><ele>625.15</ele><time>2025-12-31T19:41:35.000Z</time></trkpt>
        <trkpt lat="28.5111812" lon="105.1360756"><ele>625</ele><time>2025-12-31T19:41:51.000Z</time></trkpt>
        <trkpt lat="28.51127" lon="105.1360316"><ele>622.49</ele><time>2025-12-31T19:42:24.000Z</time></trkpt>
        <trkpt lat="28.5113537" lon="105.135988"><ele>620.78</ele><time>2025-12-31T19:42:38.000Z</time></trkpt>
        <trkpt lat="28.5114443" lon="105.1359431"><ele>619.44</ele><time>2025-12-31T19:42:52.000Z</time></trkpt>
        <trkpt lat="28.5115321" lon="105.1358988"><ele>618.42</ele><time>2025-12-31T19:43:04.000Z</time></trkpt>
        <trkpt lat="28.5115854" lon="105.1358866"><ele>617.65</ele><time>2025-12-31T19:43:12.000Z</time></trkpt>
        <trkpt lat="28.5116615" lon="105.1358682"><ele>618.51</ele><time>2025-12-31T19:43:24.000Z</time></trkpt>
        <trkpt lat="28.5117575" lon="105.1358419"><ele>619.52</ele><time>2025-12-31T19:43:38.000Z</time></trkpt>
        <trkpt lat="28.5118529" lon="105.1358175"><ele>621.52</ele><time>2025-12-31T19:43:52.000Z</time></trkpt>
        <trkpt lat="28.5119553" lon="105.1358041"><ele>624.67</ele><time>2025-12-31T19:44:06.000Z</time></trkpt>
        <trkpt lat="28.5120589" lon="105.1357844"><ele>627.28</ele><time>2025-12-31T19:44:16.000Z</time></trkpt>
        <trkpt lat="28.5121552" lon="105.1357485"><ele>628.4</ele><time>2025-12-31T19:44:32.000Z</time></trkpt>
        <trkpt lat="28.5122473" lon="105.135693"><ele>630.93</ele><time>2025-12-31T19:44:46.000Z</time></trkpt>
        <trkpt lat="28.5123217" lon="105.1356255"><ele>631.27</ele><time>2025-12-31T19:44:58.000Z</time></trkpt>
        <trkpt lat="28.5123948" lon="105.1355475"><ele>630.52</ele><time>2025-12-31T19:45:12.000Z</time></trkpt>
        <trkpt lat="28.5124716" lon="105.1354646"><ele>630.44</ele><time>2025-12-31T19:45:26.000Z</time></trkpt>
        <trkpt lat="28.5125425" lon="105.135386"><ele>630.82</ele><time>2025-12-31T19:45:38.000Z</time></trkpt>
        <trkpt lat="28.5126017" lon="105.1353059"><ele>632.01</ele><time>2025-12-31T19:45:50.000Z</time></trkpt>
        <trkpt lat="28.5126787" lon="105.1352394"><ele>633.87</ele><time>2025-12-31T19:46:02.000Z</time></trkpt>
        <trkpt lat="28.5127624" lon="105.1351756"><ele>635.85</ele><time>2025-12-31T19:46:16.000Z</time></trkpt>
        <trkpt lat="28.5128602" lon="105.1351402"><ele>637.35</ele><time>2025-12-31T19:46:30.000Z</time></trkpt>
        <trkpt lat="28.5129488" lon="105.135103"><ele>638.57</ele><time>2025-12-31T19:46:40.000Z</time></trkpt>
        <trkpt lat="28.5130408" lon="105.1350492"><ele>638.64</ele><time>2025-12-31T19:46:52.000Z</time></trkpt>
        <trkpt lat="28.5131325" lon="105.1350016"><ele>637.01</ele><time>2025-12-31T19:47:02.000Z</time></trkpt>
        <trkpt lat="28.5132097" lon="105.1349466"><ele>634.54</ele><time>2025-12-31T19:48:25.000Z</time></trkpt>
        <trkpt lat="28.5131583" lon="105.1350329"><ele>632.16</ele><time>2025-12-31T19:49:27.000Z</time></trkpt>
        <trkpt lat="28.5130517" lon="105.1350274"><ele>630.98</ele><time>2025-12-31T19:49:35.000Z</time></trkpt>
        <trkpt lat="28.5130587" lon="105.135002"><ele>631.03</ele><time>2025-12-31T19:49:37.000Z</time></trkpt>
        <trkpt lat="28.5131763" lon="105.1349989"><ele>630.98</ele><time>2025-12-31T19:50:47.000Z</time></trkpt>
        <trkpt lat="28.5132707" lon="105.1349602"><ele>630.23</ele><time>2025-12-31T19:51:07.000Z</time></trkpt>
        <trkpt lat="28.5133674" lon="105.134995"><ele>629.56</ele><time>2025-12-31T19:51:21.000Z</time></trkpt>
        <trkpt lat="28.5134628" lon="105.1350192"><ele>628.72</ele><time>2025-12-31T19:51:33.000Z</time></trkpt>
        <trkpt lat="28.513497" lon="105.1350298"><ele>626.97</ele><time>2025-12-31T19:51:37.000Z</time></trkpt>
        <trkpt lat="28.5135746" lon="105.1350261"><ele>626.17</ele><time>2025-12-31T19:52:40.000Z</time></trkpt>
        <trkpt lat="28.5136062" lon="105.1350382"><ele>625.8</ele><time>2025-12-31T19:52:45.000Z</time></trkpt>
        <trkpt lat="28.5136912" lon="105.1350462"><ele>625.34</ele><time>2025-12-31T19:53:17.000Z</time></trkpt>
        <trkpt lat="28.5137816" lon="105.1350598"><ele>625.01</ele><time>2025-12-31T19:53:37.000Z</time></trkpt>
        <trkpt lat="28.5138802" lon="105.1350935"><ele>625.18</ele><time>2025-12-31T19:53:57.000Z</time></trkpt>
        <trkpt lat="28.5139771" lon="105.1351163"><ele>625.99</ele><time>2025-12-31T19:54:13.000Z</time></trkpt>
        <trkpt lat="28.5140703" lon="105.1351314"><ele>627.37</ele><time>2025-12-31T19:54:25.000Z</time></trkpt>
        <trkpt lat="28.5141609" lon="105.1351707"><ele>628.91</ele><time>2025-12-31T19:54:37.000Z</time></trkpt>
        <trkpt lat="28.5142544" lon="105.1352036"><ele>628.9</ele><time>2025-12-31T19:54:52.000Z</time></trkpt>
        <trkpt lat="28.5143434" lon="105.1352399"><ele>628.81</ele><time>2025-12-31T19:55:02.000Z</time></trkpt>
        <trkpt lat="28.5144333" lon="105.1352701"><ele>628.57</ele><time>2025-12-31T19:55:16.000Z</time></trkpt>
        <trkpt lat="28.5145204" lon="105.1353106"><ele>628.97</ele><time>2025-12-31T19:55:30.000Z</time></trkpt>
        <trkpt lat="28.5146135" lon="105.1353466"><ele>630.08</ele><time>2025-12-31T19:55:46.000Z</time></trkpt>
        <trkpt lat="28.5147041" lon="105.1353717"><ele>631.73</ele><time>2025-12-31T19:56:00.000Z</time></trkpt>
        <trkpt lat="28.514791" lon="105.1354153"><ele>634.3</ele><time>2025-12-31T19:56:16.000Z</time></trkpt>
        <trkpt lat="28.5148771" lon="105.1354642"><ele>636.84</ele><time>2025-12-31T19:56:34.000Z</time></trkpt>
        <trkpt lat="28.5149746" lon="105.1354813"><ele>639.22</ele><time>2025-12-31T19:56:52.000Z</time></trkpt>
        <trkpt lat="28.5150704" lon="105.1354829"><ele>641.62</ele><time>2025-12-31T19:57:06.000Z</time></trkpt>
        <trkpt lat="28.5151642" lon="105.1354805"><ele>644.24</ele><time>2025-12-31T19:57:20.000Z</time></trkpt>
        <trkpt lat="28.5152576" lon="105.1354929"><ele>646.79</ele><time>2025-12-31T19:57:32.000Z</time></trkpt>
        <trkpt lat="28.515342" lon="105.1355381"><ele>646.95</ele><time>2025-12-31T19:57:46.000Z</time></trkpt>
        <trkpt lat="28.5154249" lon="105.1356061"><ele>645.24</ele><time>2025-12-31T19:58:06.000Z</time></trkpt>
        <trkpt lat="28.5155102" lon="105.1356601"><ele>643.15</ele><time>2025-12-31T19:58:34.000Z</time></trkpt>
        <trkpt lat="28.515536" lon="105.1356802"><ele>639.86</ele><time>2025-12-31T19:58:38.000Z</time></trkpt>
        <trkpt lat="28.5154632" lon="105.1356605"><ele>638.07</ele><time>2025-12-31T19:59:30.000Z</time></trkpt>
        <trkpt lat="28.5153655" lon="105.1356051"><ele>639.09</ele><time>2025-12-31T19:59:56.000Z</time></trkpt>
        <trkpt lat="28.5152659" lon="105.1355403"><ele>640.54</ele><time>2025-12-31T20:00:14.000Z</time></trkpt>
        <trkpt lat="28.5151641" lon="105.1355087"><ele>643.65</ele><time>2025-12-31T20:00:28.000Z</time></trkpt>
        <trkpt lat="28.5150555" lon="105.1354997"><ele>644.59</ele><time>2025-12-31T20:00:46.000Z</time></trkpt>
        <trkpt lat="28.5149579" lon="105.1354912"><ele>645.17</ele><time>2025-12-31T20:00:56.000Z</time></trkpt>
        <trkpt lat="28.5148574" lon="105.1354811"><ele>645.29</ele><time>2025-12-31T20:01:08.000Z</time></trkpt>
        <trkpt lat="28.5147581" lon="105.1354411"><ele>644.03</ele><time>2025-12-31T20:01:20.000Z</time></trkpt>
        <trkpt lat="28.5148023" lon="105.1354048"><ele>642.21</ele><time>2025-12-31T20:01:38.000Z</time></trkpt>
        <trkpt lat="28.5149035" lon="105.1354032"><ele>639.94</ele><time>2025-12-31T20:01:52.000Z</time></trkpt>
        <trkpt lat="28.5150138" lon="105.1353993"><ele>637.1</ele><time>2025-12-31T20:02:04.000Z</time></trkpt>
        <trkpt lat="28.5151102" lon="105.1353638"><ele>634.24</ele><time>2025-12-31T20:02:31.000Z</time></trkpt>
        <trkpt lat="28.5151372" lon="105.1353408"><ele>632.5</ele><time>2025-12-31T20:02:35.000Z</time></trkpt>
        <trkpt lat="28.5152169" lon="105.1353408"><ele>631.92</ele><time>2025-12-31T20:03:54.000Z</time></trkpt>
        <trkpt lat="28.5153057" lon="105.1353165"><ele>629.37</ele><time>2025-12-31T20:04:16.000Z</time></trkpt>
        <trkpt lat="28.5153913" lon="105.1353777"><ele>627.08</ele><time>2025-12-31T20:06:08.000Z</time></trkpt>
        <trkpt lat="28.515481" lon="105.1353973"><ele>622.85</ele><time>2025-12-31T20:07:49.000Z</time></trkpt>
        <trkpt lat="28.5155704" lon="105.1354148"><ele>618.64</ele><time>2025-12-31T20:15:21.000Z</time></trkpt>
        <trkpt lat="28.5156098" lon="105.135513"><ele>610.16</ele><time>2025-12-31T20:22:43.000Z</time></trkpt>
        <trkpt lat="28.5155923" lon="105.1355052"><ele>600.42</ele><time>2025-12-31T20:22:45.000Z</time></trkpt>
        <trkpt lat="28.5156186" lon="105.1355955"><ele>594.59</ele><time>2025-12-31T20:23:05.000Z</time></trkpt>
        <trkpt lat="28.5156449" lon="105.1356646"><ele>590.41</ele><time>2025-12-31T20:23:19.000Z</time></trkpt>
        <trkpt lat="28.5155814" lon="105.1357085"><ele>587.25</ele><time>2025-12-31T20:23:35.000Z</time></trkpt>
        <trkpt lat="28.5155639" lon="105.1357377"><ele>585.96</ele><time>2025-12-31T20:23:45.000Z</time></trkpt>
        <trkpt lat="28.5155347" lon="105.1358247"><ele>588.18</ele><time>2025-12-31T20:24:37.000Z</time></trkpt>
        <trkpt lat="28.5154619" lon="105.1358206"><ele>590.51</ele><time>2025-12-31T20:24:45.000Z</time></trkpt>
        <trkpt lat="28.515406" lon="105.1358817"><ele>590.26</ele><time>2025-12-31T20:24:51.000Z</time></trkpt>
        <trkpt lat="28.5154109" lon="105.1359142"><ele>590.43</ele><time>2025-12-31T20:24:59.000Z</time></trkpt>
        <trkpt lat="28.5153688" lon="105.1358122"><ele>591.83</ele><time>2025-12-31T20:26:30.000Z</time></trkpt>
        <trkpt lat="28.515369" lon="105.1358169"><ele>593.05</ele><time>2025-12-31T20:26:32.000Z</time></trkpt>
        <trkpt lat="28.5154172" lon="105.1357402"><ele>593.86</ele><time>2025-12-31T20:27:00.000Z</time></trkpt>
        <trkpt lat="28.5154174" lon="105.1356964"><ele>596.73</ele><time>2025-12-31T20:27:04.000Z</time></trkpt>
        <trkpt lat="28.5154206" lon="105.1357652"><ele>598.43</ele><time>2025-12-31T20:27:54.000Z</time></trkpt>
        <trkpt lat="28.5154456" lon="105.1358995"><ele>597.25</ele><time>2025-12-31T20:33:00.000Z</time></trkpt>
        <trkpt lat="28.5153608" lon="105.1358653"><ele>594.6</ele><time>2025-12-31T20:49:16.000Z</time></trkpt>
        <trkpt lat="28.5154591" lon="105.1358521"><ele>592.89</ele><time>2025-12-31T20:57:20.000Z</time></trkpt>
        <trkpt lat="28.5153984" lon="105.1357765"><ele>592.38</ele><time>2025-12-31T20:59:22.000Z</time></trkpt>
        <trkpt lat="28.5154756" lon="105.1358288"><ele>589.89</ele><time>2025-12-31T21:08:55.000Z</time></trkpt>
        <trkpt lat="28.5155685" lon="105.1357999"><ele>595.24</ele><time>2025-12-31T21:09:25.000Z</time></trkpt>
        <trkpt lat="28.5156019" lon="105.1357897"><ele>598.22</ele><time>2025-12-31T21:09:31.000Z</time></trkpt>
        <trkpt lat="28.5156847" lon="105.1357784"><ele>600.38</ele><time>2025-12-31T21:11:39.000Z</time></trkpt>
        <trkpt lat="28.5155914" lon="105.1357984"><ele>606.92</ele><time>2025-12-31T21:12:29.000Z</time></trkpt>
        <trkpt lat="28.5155839" lon="105.1358084"><ele>605.61</ele><time>2025-12-31T21:12:31.000Z</time></trkpt>
        <trkpt lat="28.5156599" lon="105.1358866"><ele>604.66</ele><time>2025-12-31T21:14:13.000Z</time></trkpt>
        <trkpt lat="28.5156827" lon="105.1359082"><ele>600.18</ele><time>2025-12-31T21:14:19.000Z</time></trkpt>
        <trkpt lat="28.5156926" lon="105.1360099"><ele>598</ele><time>2025-12-31T21:14:33.000Z</time></trkpt>
        <trkpt lat="28.5157166" lon="105.1361115"><ele>599.13</ele><time>2025-12-31T21:14:45.000Z</time></trkpt>
        <trkpt lat="28.515764" lon="105.1362071"><ele>600.76</ele><time>2025-12-31T21:14:57.000Z</time></trkpt>
        <trkpt lat="28.5157837" lon="105.1362345"><ele>601.85</ele><time>2025-12-31T21:15:01.000Z</time></trkpt>
        <trkpt lat="28.5158175" lon="105.1363039"><ele>602.08</ele><time>2025-12-31T21:15:17.000Z</time></trkpt>
        <trkpt lat="28.5158608" lon="105.1363992"><ele>600.21</ele><time>2025-12-31T21:15:31.000Z</time></trkpt>
        <trkpt lat="28.5159166" lon="105.1364945"><ele>596.09</ele><time>2025-12-31T21:15:49.000Z</time></trkpt>
        <trkpt lat="28.5159657" lon="105.1366026"><ele>593.84</ele><time>2025-12-31T21:16:07.000Z</time></trkpt>
        <trkpt lat="28.5159908" lon="105.1366555"><ele>592.63</ele><time>2025-12-31T21:16:15.000Z</time></trkpt>
        <trkpt lat="28.5160684" lon="105.1366747"><ele>593.29</ele><time>2025-12-31T21:18:35.000Z</time></trkpt>
        <trkpt lat="28.5159631" lon="105.1366986"><ele>591.95</ele><time>2025-12-31T21:18:41.000Z</time></trkpt>
        <trkpt lat="28.5159645" lon="105.136586"><ele>592.08</ele><time>2025-12-31T21:18:49.000Z</time></trkpt>
        <trkpt lat="28.515964" lon="105.1364746"><ele>591.64</ele><time>2025-12-31T21:18:57.000Z</time></trkpt>
        <trkpt lat="28.5159602" lon="105.1363531"><ele>589.62</ele><time>2025-12-31T21:19:05.000Z</time></trkpt>
        <trkpt lat="28.515911" lon="105.1362606"><ele>587.79</ele><time>2025-12-31T21:19:16.000Z</time></trkpt>
        <trkpt lat="28.5159851" lon="105.1362994"><ele>587.43</ele><time>2025-12-31T21:20:42.000Z</time></trkpt>
        <trkpt lat="28.515984" lon="105.1363056"><ele>592.24</ele><time>2025-12-31T21:20:44.000Z</time></trkpt>
        <trkpt lat="28.5160522" lon="105.1363521"><ele>594.87</ele><time>2025-12-31T21:21:18.000Z</time></trkpt>
        <trkpt lat="28.5161315" lon="105.136405"><ele>599.85</ele><time>2025-12-31T21:21:34.000Z</time></trkpt>
        <trkpt lat="28.5161741" lon="105.1364613"><ele>604.17</ele><time>2025-12-31T21:21:48.000Z</time></trkpt>
        <trkpt lat="28.5162116" lon="105.1365632"><ele>607.06</ele><time>2025-12-31T21:22:30.000Z</time></trkpt>
        <trkpt lat="28.5162605" lon="105.1366688"><ele>608.56</ele><time>2025-12-31T21:23:56.000Z</time></trkpt>
        <trkpt lat="28.5163481" lon="105.1366929"><ele>612.35</ele><time>2025-12-31T21:24:20.000Z</time></trkpt>
        <trkpt lat="28.5164421" lon="105.1367126"><ele>616.5</ele><time>2025-12-31T21:26:03.000Z</time></trkpt>
        <trkpt lat="28.5164805" lon="105.1367177"><ele>619.87</ele><time>2025-12-31T21:26:09.000Z</time></trkpt>
        <trkpt lat="28.5165636" lon="105.1367479"><ele>622.42</ele><time>2025-12-31T21:26:31.000Z</time></trkpt>
        <trkpt lat="28.5166557" lon="105.1367661"><ele>623.44</ele><time>2025-12-31T21:26:53.000Z</time></trkpt>
        <trkpt lat="28.5167542" lon="105.1367507"><ele>622.43</ele><time>2025-12-31T21:27:07.000Z</time></trkpt>
        <trkpt lat="28.5168485" lon="105.1367316"><ele>623</ele><time>2025-12-31T21:27:33.000Z</time></trkpt>
        <trkpt lat="28.5169404" lon="105.1367238"><ele>624.74</ele><time>2025-12-31T21:27:49.000Z</time></trkpt>
        <trkpt lat="28.5170407" lon="105.1367195"><ele>626.43</ele><time>2025-12-31T21:28:19.000Z</time></trkpt>
        <trkpt lat="28.51713" lon="105.1366902"><ele>628.85</ele><time>2025-12-31T21:28:49.000Z</time></trkpt>
        <trkpt lat="28.5172212" lon="105.1366624"><ele>632.72</ele><time>2025-12-31T21:29:11.000Z</time></trkpt>
        <trkpt lat="28.517313" lon="105.1366775"><ele>636.43</ele><time>2025-12-31T21:29:29.000Z</time></trkpt>
        <trkpt lat="28.5173732" lon="105.1367129"><ele>639.83</ele><time>2025-12-31T21:29:45.000Z</time></trkpt>
        <trkpt lat="28.5174257" lon="105.1367983"><ele>643.39</ele><time>2025-12-31T21:30:03.000Z</time></trkpt>
        <trkpt lat="28.5174772" lon="105.1369035"><ele>646.45</ele><time>2025-12-31T21:30:25.000Z</time></trkpt>
        <trkpt lat="28.5175584" lon="105.136959"><ele>646.83</ele><time>2025-12-31T21:30:43.000Z</time></trkpt>
        <trkpt lat="28.5176341" lon="105.1369226"><ele>648.04</ele><time>2025-12-31T21:30:55.000Z</time></trkpt>
        <trkpt lat="28.5176933" lon="105.1368309"><ele>647.11</ele><time>2025-12-31T21:31:15.000Z</time></trkpt>
        <trkpt lat="28.5177615" lon="105.1367366"><ele>645.33</ele><time>2025-12-31T21:31:27.000Z</time></trkpt>
        <trkpt lat="28.5178453" lon="105.1366888"><ele>644.39</ele><time>2025-12-31T21:31:49.000Z</time></trkpt>
        <trkpt lat="28.5179373" lon="105.1366771"><ele>641.81</ele><time>2025-12-31T21:32:07.000Z</time></trkpt>
        <trkpt lat="28.5180299" lon="105.1366581"><ele>639.84</ele><time>2025-12-31T21:32:44.000Z</time></trkpt>
        <trkpt lat="28.5181149" lon="105.1366205"><ele>637.8</ele><time>2025-12-31T21:33:04.000Z</time></trkpt>
        <trkpt lat="28.5181669" lon="105.1366022"><ele>638.37</ele><time>2025-12-31T21:33:12.000Z</time></trkpt>
        <trkpt lat="28.5182427" lon="105.1365584"><ele>639.81</ele><time>2025-12-31T21:33:36.000Z</time></trkpt>
        <trkpt lat="28.5183261" lon="105.1365067"><ele>639.86</ele><time>2025-12-31T21:33:54.000Z</time></trkpt>
        <trkpt lat="28.5183961" lon="105.136435"><ele>638.71</ele><time>2025-12-31T21:34:14.000Z</time></trkpt>
        <trkpt lat="28.5184593" lon="105.1363486"><ele>635.76</ele><time>2025-12-31T21:34:34.000Z</time></trkpt>
        <trkpt lat="28.5185359" lon="105.136292"><ele>629.99</ele><time>2025-12-31T21:34:46.000Z</time></trkpt>
        <trkpt lat="28.5186265" lon="105.1362561"><ele>625.21</ele><time>2025-12-31T21:35:00.000Z</time></trkpt>
        <trkpt lat="28.51872" lon="105.1362316"><ele>622</ele><time>2025-12-31T21:35:14.000Z</time></trkpt>
        <trkpt lat="28.5188113" lon="105.1362131"><ele>618.95</ele><time>2025-12-31T21:35:24.000Z</time></trkpt>
        <trkpt lat="28.5189033" lon="105.1361954"><ele>618.15</ele><time>2025-12-31T21:35:36.000Z</time></trkpt>
        <trkpt lat="28.5189965" lon="105.1361973"><ele>619.44</ele><time>2025-12-31T21:35:50.000Z</time></trkpt>
        <trkpt lat="28.5190877" lon="105.1361781"><ele>620.02</ele><time>2025-12-31T21:36:06.000Z</time></trkpt>
        <trkpt lat="28.5191636" lon="105.1361165"><ele>622.11</ele><time>2025-12-31T21:36:20.000Z</time></trkpt>
        <trkpt lat="28.5192401" lon="105.1360578"><ele>623.89</ele><time>2025-12-31T21:36:34.000Z</time></trkpt>
        <trkpt lat="28.5193117" lon="105.1359905"><ele>623.44</ele><time>2025-12-31T21:37:10.000Z</time></trkpt>
        <trkpt lat="28.5193646" lon="105.135903"><ele>621.11</ele><time>2025-12-31T21:37:30.000Z</time></trkpt>
        <trkpt lat="28.5194189" lon="105.1358109"><ele>618.62</ele><time>2025-12-31T21:37:54.000Z</time></trkpt>
        <trkpt lat="28.5194733" lon="105.1357195"><ele>614.32</ele><time>2025-12-31T21:38:22.000Z</time></trkpt>
        <trkpt lat="28.5195394" lon="105.135627"><ele>611.8</ele><time>2025-12-31T21:38:44.000Z</time></trkpt>
        <trkpt lat="28.5196224" lon="105.1355594"><ele>608.76</ele><time>2025-12-31T21:39:08.000Z</time></trkpt>
        <trkpt lat="28.5197139" lon="105.1355033"><ele>606.05</ele><time>2025-12-31T21:39:20.000Z</time></trkpt>
        <trkpt lat="28.5198091" lon="105.1354833"><ele>602.67</ele><time>2025-12-31T21:39:34.000Z</time></trkpt>
        <trkpt lat="28.5198481" lon="105.1355618"><ele>599.55</ele><time>2025-12-31T21:39:48.000Z</time></trkpt>
        <trkpt lat="28.519813" lon="105.1356677"><ele>595.98</ele><time>2025-12-31T21:40:04.000Z</time></trkpt>
        <trkpt lat="28.5198515" lon="105.1357879"><ele>593.58</ele><time>2025-12-31T21:41:28.000Z</time></trkpt>
        <trkpt lat="28.5199336" lon="105.1358441"><ele>592</ele><time>2025-12-31T21:41:40.000Z</time></trkpt>
        <trkpt lat="28.5200229" lon="105.1358735"><ele>592.53</ele><time>2025-12-31T21:42:02.000Z</time></trkpt>
        <trkpt lat="28.5200979" lon="105.1359292"><ele>594.7</ele><time>2025-12-31T21:42:18.000Z</time></trkpt>
        <trkpt lat="28.5201588" lon="105.1360085"><ele>596.92</ele><time>2025-12-31T21:42:44.000Z</time></trkpt>
        <trkpt lat="28.5201585" lon="105.1361208"><ele>597.51</ele><time>2025-12-31T21:42:56.000Z</time></trkpt>
        <trkpt lat="28.5201183" lon="105.1362248"><ele>596.08</ele><time>2025-12-31T21:43:42.000Z</time></trkpt>
        <trkpt lat="28.5200926" lon="105.1363314"><ele>594.43</ele><time>2025-12-31T21:43:56.000Z</time></trkpt>
        <trkpt lat="28.5200823" lon="105.1364404"><ele>593.34</ele><time>2025-12-31T21:44:12.000Z</time></trkpt>
        <trkpt lat="28.520099" lon="105.1365463"><ele>593.83</ele><time>2025-12-31T21:44:26.000Z</time></trkpt>
        <trkpt lat="28.5200855" lon="105.1366525"><ele>595.12</ele><time>2025-12-31T21:44:38.000Z</time></trkpt>
        <trkpt lat="28.5200081" lon="105.1367021"><ele>594.65</ele><time>2025-12-31T21:45:10.000Z</time></trkpt>
        <trkpt lat="28.5199089" lon="105.1367044"><ele>594.11</ele><time>2025-12-31T21:45:22.000Z</time></trkpt>
        <trkpt lat="28.5198019" lon="105.1366858"><ele>594.28</ele><time>2025-12-31T21:45:34.000Z</time></trkpt>
        <trkpt lat="28.5196984" lon="105.1366999"><ele>596.25</ele><time>2025-12-31T21:45:48.000Z</time></trkpt>
        <trkpt lat="28.5196062" lon="105.1367433"><ele>597.25</ele><time>2025-12-31T21:46:02.000Z</time></trkpt>
        <trkpt lat="28.5195771" lon="105.1368407"><ele>599.55</ele><time>2025-12-31T21:46:20.000Z</time></trkpt>
        <trkpt lat="28.5196011" lon="105.13695"><ele>603.48</ele><time>2025-12-31T21:46:32.000Z</time></trkpt>
        <trkpt lat="28.519633" lon="105.1370609"><ele>604.84</ele><time>2025-12-31T21:46:42.000Z</time></trkpt>
        <trkpt lat="28.5196417" lon="105.1371835"><ele>603.96</ele><time>2025-12-31T21:46:54.000Z</time></trkpt>
        <trkpt lat="28.5196132" lon="105.1372963"><ele>602.59</ele><time>2025-12-31T21:47:04.000Z</time></trkpt>
        <trkpt lat="28.5195694" lon="105.1374056"><ele>602.03</ele><time>2025-12-31T21:47:16.000Z</time></trkpt>
        <trkpt lat="28.5195592" lon="105.1375192"><ele>602.48</ele><time>2025-12-31T21:47:28.000Z</time></trkpt>
        <trkpt lat="28.5196163" lon="105.1375945"><ele>602.79</ele><time>2025-12-31T21:47:42.000Z</time></trkpt>
        <trkpt lat="28.5197068" lon="105.13763"><ele>603.45</ele><time>2025-12-31T21:47:52.000Z</time></trkpt>
        <trkpt lat="28.5198043" lon="105.1376496"><ele>603.89</ele><time>2025-12-31T21:48:02.000Z</time></trkpt>
        <trkpt lat="28.5199022" lon="105.1376895"><ele>604.27</ele><time>2025-12-31T21:48:20.000Z</time></trkpt>
        <trkpt lat="28.5199968" lon="105.1377281"><ele>604.1</ele><time>2025-12-31T21:48:30.000Z</time></trkpt>
        <trkpt lat="28.5200419" lon="105.1378197"><ele>603.6</ele><time>2025-12-31T21:48:42.000Z</time></trkpt>
        <trkpt lat="28.5199898" lon="105.1378979"><ele>602.16</ele><time>2025-12-31T21:48:54.000Z</time></trkpt>
        <trkpt lat="28.5199118" lon="105.1379734"><ele>599.85</ele><time>2025-12-31T21:49:18.000Z</time></trkpt>
        <trkpt lat="28.5198359" lon="105.1380504"><ele>600.04</ele><time>2025-12-31T21:49:34.000Z</time></trkpt>
        <trkpt lat="28.5197794" lon="105.1381493"><ele>596.96</ele><time>2025-12-31T21:49:50.000Z</time></trkpt>
        <trkpt lat="28.5197609" lon="105.1382547"><ele>594</ele><time>2025-12-31T21:50:48.000Z</time></trkpt>
        <trkpt lat="28.5197276" lon="105.13837"><ele>594.38</ele><time>2025-12-31T21:51:00.000Z</time></trkpt>
        <trkpt lat="28.5196702" lon="105.138459"><ele>593.13</ele><time>2025-12-31T21:51:08.000Z</time></trkpt>
        <trkpt lat="28.5196231" lon="105.1385419"><ele>591.76</ele><time>2025-12-31T21:51:16.000Z</time></trkpt>
        <trkpt lat="28.5196939" lon="105.1386247"><ele>590.17</ele><time>2025-12-31T21:53:20.000Z</time></trkpt>
        <trkpt lat="28.5196909" lon="105.138739"><ele>591.43</ele><time>2025-12-31T21:53:30.000Z</time></trkpt>
        <trkpt lat="28.5196999" lon="105.1388432"><ele>592.2</ele><time>2025-12-31T21:53:40.000Z</time></trkpt>
        <trkpt lat="28.5197137" lon="105.1389465"><ele>592.23</ele><time>2025-12-31T21:53:54.000Z</time></trkpt>
        <trkpt lat="28.5197339" lon="105.1390524"><ele>591.97</ele><time>2025-12-31T21:54:06.000Z</time></trkpt>
        <trkpt lat="28.5197475" lon="105.1391551"><ele>591.67</ele><time>2025-12-31T21:54:16.000Z</time></trkpt>
        <trkpt lat="28.5197161" lon="105.1392541"><ele>591.33</ele><time>2025-12-31T21:54:28.000Z</time></trkpt>
        <trkpt lat="28.519667" lon="105.1393432"><ele>590.58</ele><time>2025-12-31T21:54:38.000Z</time></trkpt>
        <trkpt lat="28.5196888" lon="105.1394269"><ele>589.27</ele><time>2025-12-31T21:54:48.000Z</time></trkpt>
        <trkpt lat="28.5197472" lon="105.139507"><ele>587.72</ele><time>2025-12-31T21:55:12.000Z</time></trkpt>
        <trkpt lat="28.5198202" lon="105.1395804"><ele>586.9</ele><time>2025-12-31T21:55:22.000Z</time></trkpt>
        <trkpt lat="28.519894" lon="105.1396581"><ele>585.47</ele><time>2025-12-31T21:55:32.000Z</time></trkpt>
        <trkpt lat="28.5199627" lon="105.139741"><ele>583.81</ele><time>2025-12-31T21:55:42.000Z</time></trkpt>
        <trkpt lat="28.5200085" lon="105.1398159"><ele>582.58</ele><time>2025-12-31T21:55:54.000Z</time></trkpt>
        <trkpt lat="28.5200771" lon="105.1398881"><ele>582.11</ele><time>2025-12-31T21:56:32.000Z</time></trkpt>
        <trkpt lat="28.5201485" lon="105.139968"><ele>582.89</ele><time>2025-12-31T21:56:46.000Z</time></trkpt>
        <trkpt lat="28.5202025" lon="105.1400626"><ele>584.63</ele><time>2025-12-31T21:57:02.000Z</time></trkpt>
        <trkpt lat="28.5202483" lon="105.1401615"><ele>585.98</ele><time>2025-12-31T21:57:16.000Z</time></trkpt>
        <trkpt lat="28.5203169" lon="105.1402303"><ele>587.36</ele><time>2025-12-31T21:57:28.000Z</time></trkpt>
        <trkpt lat="28.5204164" lon="105.1402368"><ele>588.57</ele><time>2025-12-31T21:57:40.000Z</time></trkpt>
        <trkpt lat="28.5205188" lon="105.1402147"><ele>589.58</ele><time>2025-12-31T21:57:50.000Z</time></trkpt>
        <trkpt lat="28.5206149" lon="105.1402063"><ele>590.47</ele><time>2025-12-31T21:58:00.000Z</time></trkpt>
        <trkpt lat="28.5206557" lon="105.1402817"><ele>591.21</ele><time>2025-12-31T21:58:12.000Z</time></trkpt>
        <trkpt lat="28.5206486" lon="105.1403967"><ele>590.44</ele><time>2025-12-31T21:58:24.000Z</time></trkpt>
        <trkpt lat="28.5206125" lon="105.1405068"><ele>589.12</ele><time>2025-12-31T21:58:34.000Z</time></trkpt>
        <trkpt lat="28.5205629" lon="105.1406072"><ele>588.51</ele><time>2025-12-31T21:58:44.000Z</time></trkpt>
        <trkpt lat="28.5205031" lon="105.1407021"><ele>588</ele><time>2025-12-31T21:58:56.000Z</time></trkpt>
        <trkpt lat="28.5204743" lon="105.1408039"><ele>587.31</ele><time>2025-12-31T21:59:08.000Z</time></trkpt>
        <trkpt lat="28.520474" lon="105.1408586"><ele>586.8</ele><time>2025-12-31T21:59:12.000Z</time></trkpt>
        <trkpt lat="28.5205317" lon="105.1409195"><ele>586.27</ele><time>2025-12-31T21:59:28.000Z</time></trkpt>
        <trkpt lat="28.5206153" lon="105.1409698"><ele>586.99</ele><time>2025-12-31T21:59:38.000Z</time></trkpt>
        <trkpt lat="28.5207087" lon="105.1410089"><ele>587.61</ele><time>2025-12-31T21:59:48.000Z</time></trkpt>
        <trkpt lat="28.5208049" lon="105.1410616"><ele>587.92</ele><time>2025-12-31T22:00:08.000Z</time></trkpt>
        <trkpt lat="28.5208539" lon="105.1410763"><ele>587.23</ele><time>2025-12-31T22:00:14.000Z</time></trkpt>
        <trkpt lat="28.5209301" lon="105.1410923"><ele>587.58</ele><time>2025-12-31T22:00:28.000Z</time></trkpt>
        <trkpt lat="28.5210006" lon="105.1410384"><ele>587.68</ele><time>2025-12-31T22:00:38.000Z</time></trkpt>
        <trkpt lat="28.5210757" lon="105.1409533"><ele>588.26</ele><time>2025-12-31T22:00:48.000Z</time></trkpt>
        <trkpt lat="28.521152" lon="105.1408777"><ele>589.79</ele><time>2025-12-31T22:00:56.000Z</time></trkpt>
        <trkpt lat="28.5212275" lon="105.1408093"><ele>591.04</ele><time>2025-12-31T22:01:04.000Z</time></trkpt>
        <trkpt lat="28.5213088" lon="105.1407529"><ele>592.63</ele><time>2025-12-31T22:01:12.000Z</time></trkpt>
        <trkpt lat="28.5213979" lon="105.1407374"><ele>593.35</ele><time>2025-12-31T22:01:28.000Z</time></trkpt>
        <trkpt lat="28.521496" lon="105.1407481"><ele>592.69</ele><time>2025-12-31T22:01:42.000Z</time></trkpt>
        <trkpt lat="28.5215952" lon="105.1407726"><ele>592.53</ele><time>2025-12-31T22:01:54.000Z</time></trkpt>
        <trkpt lat="28.5216481" lon="105.1408653"><ele>591.75</ele><time>2025-12-31T22:02:12.000Z</time></trkpt>
        <trkpt lat="28.5216504" lon="105.1409803"><ele>590.74</ele><time>2025-12-31T22:02:36.000Z</time></trkpt>
        <trkpt lat="28.521626" lon="105.1411021"><ele>590.93</ele><time>2025-12-31T22:02:48.000Z</time></trkpt>
        <trkpt lat="28.5215746" lon="105.1412022"><ele>592.57</ele><time>2025-12-31T22:03:02.000Z</time></trkpt>
        <trkpt lat="28.5214871" lon="105.141186"><ele>594.33</ele><time>2025-12-31T22:03:16.000Z</time></trkpt>
        <trkpt lat="28.5213915" lon="105.1411992"><ele>594.99</ele><time>2025-12-31T22:04:00.000Z</time></trkpt>
        <trkpt lat="28.5214628" lon="105.1412209"><ele>594.81</ele><time>2025-12-31T22:05:48.000Z</time></trkpt>
        <trkpt lat="28.5215459" lon="105.1412725"><ele>591.69</ele><time>2025-12-31T22:06:02.000Z</time></trkpt>
        <trkpt lat="28.5215445" lon="105.1413796"><ele>590.74</ele><time>2025-12-31T22:06:18.000Z</time></trkpt>
        <trkpt lat="28.521498" lon="105.1414788"><ele>591.51</ele><time>2025-12-31T22:06:30.000Z</time></trkpt>
        <trkpt lat="28.521509" lon="105.1414311"><ele>592.11</ele><time>2025-12-31T22:07:24.000Z</time></trkpt>
        <trkpt lat="28.521548" lon="105.1413239"><ele>592.8</ele><time>2025-12-31T22:07:42.000Z</time></trkpt>
        <trkpt lat="28.5215315" lon="105.1412015"><ele>593.65</ele><time>2025-12-31T22:07:56.000Z</time></trkpt>
        <trkpt lat="28.5214655" lon="105.141109"><ele>595.2</ele><time>2025-12-31T22:08:12.000Z</time></trkpt>
        <trkpt lat="28.5213763" lon="105.1410548"><ele>596.02</ele><time>2025-12-31T22:08:26.000Z</time></trkpt>
        <trkpt lat="28.5212912" lon="105.1409757"><ele>595.85</ele><time>2025-12-31T22:08:38.000Z</time></trkpt>
        <trkpt lat="28.5212027" lon="105.1409906"><ele>594.08</ele><time>2025-12-31T22:08:54.000Z</time></trkpt>
        <trkpt lat="28.5211214" lon="105.1410572"><ele>594.77</ele><time>2025-12-31T22:09:06.000Z</time></trkpt>
        <trkpt lat="28.5210482" lon="105.1411439"><ele>595.23</ele><time>2025-12-31T22:09:18.000Z</time></trkpt>
        <trkpt lat="28.5209552" lon="105.1412099"><ele>596.22</ele><time>2025-12-31T22:09:30.000Z</time></trkpt>
        <trkpt lat="28.5208593" lon="105.1412756"><ele>598.9</ele><time>2025-12-31T22:09:40.000Z</time></trkpt>
        <trkpt lat="28.5207657" lon="105.1412793"><ele>599.03</ele><time>2025-12-31T22:09:48.000Z</time></trkpt>
        <trkpt lat="28.5207077" lon="105.1412636"><ele>598.79</ele><time>2025-12-31T22:09:56.000Z</time></trkpt>
        <trkpt lat="28.5206505" lon="105.141198"><ele>597.41</ele><time>2025-12-31T22:10:12.000Z</time></trkpt>
        <trkpt lat="28.5205659" lon="105.1411605"><ele>596.41</ele><time>2025-12-31T22:10:36.000Z</time></trkpt>
        <trkpt lat="28.5204728" lon="105.141152"><ele>595.78</ele><time>2025-12-31T22:10:48.000Z</time></trkpt>
        <trkpt lat="28.5203703" lon="105.1411536"><ele>597.05</ele><time>2025-12-31T22:11:02.000Z</time></trkpt>
        <trkpt lat="28.520273" lon="105.1411195"><ele>600.6</ele><time>2025-12-31T22:11:12.000Z</time></trkpt>
        <trkpt lat="28.5201877" lon="105.1411439"><ele>603.19</ele><time>2025-12-31T22:11:34.000Z</time></trkpt>
        <trkpt lat="28.5201615" lon="105.1412324"><ele>603.59</ele><time>2025-12-31T22:11:48.000Z</time></trkpt>
        <trkpt lat="28.5202105" lon="105.1413336"><ele>604.53</ele><time>2025-12-31T22:12:14.000Z</time></trkpt>
        <trkpt lat="28.5202339" lon="105.1414501"><ele>606.95</ele><time>2025-12-31T22:12:24.000Z</time></trkpt>
        <trkpt lat="28.5202634" lon="105.1415725"><ele>608.71</ele><time>2025-12-31T22:13:10.000Z</time></trkpt>
        <trkpt lat="28.5202767" lon="105.1416943"><ele>610.28</ele><time>2025-12-31T22:13:22.000Z</time></trkpt>
        <trkpt lat="28.520294" lon="105.1418182"><ele>611.58</ele><time>2025-12-31T22:13:34.000Z</time></trkpt>
        <trkpt lat="28.5203002" lon="105.1419348"><ele>614.01</ele><time>2025-12-31T22:13:44.000Z</time></trkpt>
        <trkpt lat="28.5203251" lon="105.1420384"><ele>614.87</ele><time>2025-12-31T22:13:54.000Z</time></trkpt>
        <trkpt lat="28.5203529" lon="105.1421383"><ele>616.3</ele><time>2025-12-31T22:14:04.000Z</time></trkpt>
        <trkpt lat="28.5203013" lon="105.1422074"><ele>617.02</ele><time>2025-12-31T22:14:18.000Z</time></trkpt>
        <trkpt lat="28.5202041" lon="105.1422208"><ele>616.67</ele><time>2025-12-31T22:14:28.000Z</time></trkpt>
        <trkpt lat="28.5200951" lon="105.1422325"><ele>617.23</ele><time>2025-12-31T22:14:38.000Z</time></trkpt>
        <trkpt lat="28.5200484" lon="105.1422528"><ele>617.25</ele><time>2025-12-31T22:14:44.000Z</time></trkpt>
        <trkpt lat="28.5199792" lon="105.1423049"><ele>617.31</ele><time>2025-12-31T22:14:56.000Z</time></trkpt>
        <trkpt lat="28.5199037" lon="105.1423757"><ele>615.73</ele><time>2025-12-31T22:15:08.000Z</time></trkpt>
        <trkpt lat="28.5198305" lon="105.1424585"><ele>613.91</ele><time>2025-12-31T22:15:22.000Z</time></trkpt>
        <trkpt lat="28.5197712" lon="105.1425537"><ele>613.11</ele><time>2025-12-31T22:15:32.000Z</time></trkpt>
        <trkpt lat="28.5197229" lon="105.142649"><ele>611.42</ele><time>2025-12-31T22:15:46.000Z</time></trkpt>
        <trkpt lat="28.5196784" lon="105.1427509"><ele>610.24</ele><time>2025-12-31T22:16:00.000Z</time></trkpt>
        <trkpt lat="28.5196333" lon="105.1428502"><ele>609.43</ele><time>2025-12-31T22:16:10.000Z</time></trkpt>
        <trkpt lat="28.5195797" lon="105.1429409"><ele>607.45</ele><time>2025-12-31T22:16:32.000Z</time></trkpt>
        <trkpt lat="28.5195239" lon="105.1430407"><ele>607.54</ele><time>2025-12-31T22:16:42.000Z</time></trkpt>
        <trkpt lat="28.5194419" lon="105.1430766"><ele>607.28</ele><time>2025-12-31T22:17:12.000Z</time></trkpt>
        <trkpt lat="28.5193427" lon="105.1430652"><ele>601.76</ele><time>2025-12-31T22:17:26.000Z</time></trkpt>
        <trkpt lat="28.5192472" lon="105.1430834"><ele>597.94</ele><time>2025-12-31T22:17:36.000Z</time></trkpt>
        <trkpt lat="28.5191729" lon="105.1431473"><ele>595.73</ele><time>2025-12-31T22:17:50.000Z</time></trkpt>
        <trkpt lat="28.5190926" lon="105.1431961"><ele>593.04</ele><time>2025-12-31T22:18:00.000Z</time></trkpt>
        <trkpt lat="28.519008" lon="105.1432377"><ele>592.1</ele><time>2025-12-31T22:18:10.000Z</time></trkpt>
        <trkpt lat="28.5189184" lon="105.1432944"><ele>592.96</ele><time>2025-12-31T22:18:20.000Z</time></trkpt>
        <trkpt lat="28.5188412" lon="105.1433561"><ele>594.9</ele><time>2025-12-31T22:18:32.000Z</time></trkpt>
        <trkpt lat="28.5188053" lon="105.1434525"><ele>597.03</ele><time>2025-12-31T22:18:44.000Z</time></trkpt>
        <trkpt lat="28.5187843" lon="105.1435574"><ele>597.62</ele><time>2025-12-31T22:18:54.000Z</time></trkpt>
        <trkpt lat="28.5187819" lon="105.1436675"><ele>598.11</ele><time>2025-12-31T22:19:04.000Z</time></trkpt>
        <trkpt lat="28.5187674" lon="105.143777"><ele>598.25</ele><time>2025-12-31T22:19:12.000Z</time></trkpt>
        <trkpt lat="28.5187339" lon="105.1438823"><ele>596.66</ele><time>2025-12-31T22:19:22.000Z</time></trkpt>
        <trkpt lat="28.5186751" lon="105.1439787"><ele>594.99</ele><time>2025-12-31T22:19:34.000Z</time></trkpt>
        <trkpt lat="28.5186189" lon="105.1440682"><ele>594.44</ele><time>2025-12-31T22:19:46.000Z</time></trkpt>
        <trkpt lat="28.5185968" lon="105.1440126"><ele>591.2</ele><time>2025-12-31T22:20:40.000Z</time></trkpt>
        <trkpt lat="28.518533" lon="105.144027"><ele>588.5</ele><time>2025-12-31T22:21:10.000Z</time></trkpt>
        <trkpt lat="28.518523" lon="105.1440421"><ele>588.1</ele><time>2025-12-31T22:21:16.000Z</time></trkpt>
        <trkpt lat="28.5184703" lon="105.1440972"><ele>586.62</ele><time>2025-12-31T22:22:08.000Z</time></trkpt>
        <trkpt lat="28.5183794" lon="105.1441603"><ele>582.09</ele><time>2025-12-31T22:24:02.000Z</time></trkpt>
        <trkpt lat="28.5183656" lon="105.1442642"><ele>577.18</ele><time>2025-12-31T22:26:42.000Z</time></trkpt>
        <trkpt lat="28.5183572" lon="105.1443715"><ele>569.15</ele><time>2025-12-31T22:27:00.000Z</time></trkpt>
        <trkpt lat="28.5183537" lon="105.1444858"><ele>562.52</ele><time>2025-12-31T22:27:18.000Z</time></trkpt>
        <trkpt lat="28.5183617" lon="105.1445921"><ele>555.1</ele><time>2025-12-31T22:27:30.000Z</time></trkpt>
        <trkpt lat="28.5183526" lon="105.1446959"><ele>549.37</ele><time>2025-12-31T22:27:46.000Z</time></trkpt>
        <trkpt lat="28.5183852" lon="105.1448025"><ele>545.46</ele><time>2025-12-31T22:28:02.000Z</time></trkpt>
        <trkpt lat="28.5184015" lon="105.1449062"><ele>544.82</ele><time>2025-12-31T22:28:14.000Z</time></trkpt>
        <trkpt lat="28.51842" lon="105.1450138"><ele>546.21</ele><time>2025-12-31T22:28:28.000Z</time></trkpt>
        <trkpt lat="28.5184196" lon="105.1451303"><ele>546.09</ele><time>2025-12-31T22:28:52.000Z</time></trkpt>
        <trkpt lat="28.5183555" lon="105.1452073"><ele>543.75</ele><time>2025-12-31T22:29:06.000Z</time></trkpt>
        <trkpt lat="28.5182564" lon="105.1452294"><ele>542.34</ele><time>2025-12-31T22:29:24.000Z</time></trkpt>
        <trkpt lat="28.5181513" lon="105.145231"><ele>540.81</ele><time>2025-12-31T22:29:38.000Z</time></trkpt>
        <trkpt lat="28.5180475" lon="105.1452248"><ele>538.91</ele><time>2025-12-31T22:29:56.000Z</time></trkpt>
        <trkpt lat="28.5179465" lon="105.1452409"><ele>535.18</ele><time>2025-12-31T22:30:16.000Z</time></trkpt>
        <trkpt lat="28.5178539" lon="105.1452714"><ele>531.55</ele><time>2025-12-31T22:30:32.000Z</time></trkpt>
        <trkpt lat="28.5178074" lon="105.1452956"><ele>529.29</ele><time>2025-12-31T22:30:42.000Z</time></trkpt>
        <trkpt lat="28.5177613" lon="105.1453669"><ele>526.94</ele><time>2025-12-31T22:31:04.000Z</time></trkpt>
        <trkpt lat="28.5178236" lon="105.1454162"><ele>523.04</ele><time>2025-12-31T22:31:40.000Z</time></trkpt>
        <trkpt lat="28.5178687" lon="105.1455109"><ele>517.68</ele><time>2025-12-31T22:31:52.000Z</time></trkpt>
        <trkpt lat="28.5178462" lon="105.145614"><ele>513.16</ele><time>2025-12-31T22:32:04.000Z</time></trkpt>
        <trkpt lat="28.517799" lon="105.1457099"><ele>508.84</ele><time>2025-12-31T22:32:14.000Z</time></trkpt>
        <trkpt lat="28.5177324" lon="105.1458084"><ele>506.57</ele><time>2025-12-31T22:32:26.000Z</time></trkpt>
        <trkpt lat="28.5176465" lon="105.1458909"><ele>504.17</ele><time>2025-12-31T22:32:36.000Z</time></trkpt>
        <trkpt lat="28.517571" lon="105.1459677"><ele>501.86</ele><time>2025-12-31T22:32:46.000Z</time></trkpt>
        <trkpt lat="28.5175184" lon="105.1460147"><ele>500.5</ele><time>2025-12-31T22:32:54.000Z</time></trkpt>
        <trkpt lat="28.5175646" lon="105.1460644"><ele>499.91</ele><time>2025-12-31T22:33:04.000Z</time></trkpt>
        <trkpt lat="28.5175641" lon="105.1461503"><ele>499.03</ele><time>2025-12-31T22:33:18.000Z</time></trkpt>
        <trkpt lat="28.5175883" lon="105.1462725"><ele>497.97</ele><time>2025-12-31T22:35:10.000Z</time></trkpt>
        <trkpt lat="28.5175285" lon="105.1463623"><ele>498.35</ele><time>2025-12-31T22:35:36.000Z</time></trkpt>
        <trkpt lat="28.5175644" lon="105.1462582"><ele>498.53</ele><time>2025-12-31T22:36:48.000Z</time></trkpt>
        <trkpt lat="28.5175718" lon="105.1461461"><ele>498.02</ele><time>2025-12-31T22:37:04.000Z</time></trkpt>
        <trkpt lat="28.5175624" lon="105.1460354"><ele>498.46</ele><time>2025-12-31T22:37:18.000Z</time></trkpt>
        <trkpt lat="28.5175221" lon="105.1459356"><ele>498.76</ele><time>2025-12-31T22:37:32.000Z</time></trkpt>
        <trkpt lat="28.5174472" lon="105.1458656"><ele>498.46</ele><time>2025-12-31T22:37:44.000Z</time></trkpt>
        <trkpt lat="28.5173551" lon="105.1458085"><ele>497.08</ele><time>2025-12-31T22:38:00.000Z</time></trkpt>
        <trkpt lat="28.5172616" lon="105.1457624"><ele>496.75</ele><time>2025-12-31T22:38:26.000Z</time></trkpt>
        <trkpt lat="28.5171672" lon="105.1457468"><ele>496.04</ele><time>2025-12-31T22:38:50.000Z</time></trkpt>
        <trkpt lat="28.5170836" lon="105.1456941"><ele>497.3</ele><time>2025-12-31T22:39:12.000Z</time></trkpt>
        <trkpt lat="28.5170223" lon="105.1456064"><ele>496.47</ele><time>2025-12-31T22:39:24.000Z</time></trkpt>
        <trkpt lat="28.5170057" lon="105.1455458"><ele>494.89</ele><time>2025-12-31T22:39:32.000Z</time></trkpt>
        <trkpt lat="28.5169768" lon="105.1454592"><ele>493.72</ele><time>2025-12-31T22:39:50.000Z</time></trkpt>
        <trkpt lat="28.5169656" lon="105.1453287"><ele>492.04</ele><time>2025-12-31T22:40:52.000Z</time></trkpt>
        <trkpt lat="28.5169448" lon="105.1452216"><ele>491.42</ele><time>2025-12-31T22:41:04.000Z</time></trkpt>
        <trkpt lat="28.5169338" lon="105.1451072"><ele>489.77</ele><time>2025-12-31T22:41:36.000Z</time></trkpt>
        <trkpt lat="28.5169605" lon="105.1450069"><ele>489.35</ele><time>2025-12-31T22:41:46.000Z</time></trkpt>
        <trkpt lat="28.5169533" lon="105.1449058"><ele>490.16</ele><time>2025-12-31T22:41:56.000Z</time></trkpt>
        <trkpt lat="28.5168863" lon="105.1448411"><ele>490.93</ele><time>2025-12-31T22:42:08.000Z</time></trkpt>
        <trkpt lat="28.5167944" lon="105.1448331"><ele>491.85</ele><time>2025-12-31T22:42:18.000Z</time></trkpt>
        <trkpt lat="28.51669" lon="105.1448287"><ele>492.63</ele><time>2025-12-31T22:42:28.000Z</time></trkpt>
        <trkpt lat="28.5165937" lon="105.1448021"><ele>494.21</ele><time>2025-12-31T22:42:36.000Z</time></trkpt>
        <trkpt lat="28.5165133" lon="105.1447485"><ele>493.22</ele><time>2025-12-31T22:42:46.000Z</time></trkpt>
        <trkpt lat="28.5164348" lon="105.144691"><ele>492.99</ele><time>2025-12-31T22:42:58.000Z</time></trkpt>
        <trkpt lat="28.5163521" lon="105.1446242"><ele>493.06</ele><time>2025-12-31T22:43:12.000Z</time></trkpt>
        <trkpt lat="28.5164084" lon="105.1446136"><ele>493.53</ele><time>2025-12-31T22:43:48.000Z</time></trkpt>
        <trkpt lat="28.5164939" lon="105.144661"><ele>494.61</ele><time>2025-12-31T22:43:58.000Z</time></trkpt>
        <trkpt lat="28.5164455" lon="105.1446945"><ele>494.86</ele><time>2025-12-31T22:44:22.000Z</time></trkpt>
        <trkpt lat="28.5163413" lon="105.1446976"><ele>492.96</ele><time>2025-12-31T22:44:32.000Z</time></trkpt>
        <trkpt lat="28.5162314" lon="105.1447028"><ele>491.75</ele><time>2025-12-31T22:44:46.000Z</time></trkpt>
        <trkpt lat="28.516125" lon="105.1447291"><ele>490.17</ele><time>2025-12-31T22:45:00.000Z</time></trkpt>
        <trkpt lat="28.5160221" lon="105.1447499"><ele>487.56</ele><time>2025-12-31T22:45:14.000Z</time></trkpt>
        <trkpt lat="28.5159248" lon="105.1447786"><ele>486.27</ele><time>2025-12-31T22:45:28.000Z</time></trkpt>
        <trkpt lat="28.5158272" lon="105.1447932"><ele>484.08</ele><time>2025-12-31T22:45:44.000Z</time></trkpt>
        <trkpt lat="28.5157295" lon="105.1447946"><ele>483.25</ele><time>2025-12-31T22:45:56.000Z</time></trkpt>
        <trkpt lat="28.5156338" lon="105.1447761"><ele>482.87</ele><time>2025-12-31T22:46:08.000Z</time></trkpt>
        <trkpt lat="28.5155404" lon="105.1447703"><ele>481.6</ele><time>2025-12-31T22:46:24.000Z</time></trkpt>
        <trkpt lat="28.5154466" lon="105.1447479"><ele>480.7</ele><time>2025-12-31T22:46:38.000Z</time></trkpt>
        <trkpt lat="28.5153491" lon="105.1447168"><ele>477.83</ele><time>2025-12-31T22:46:54.000Z</time></trkpt>
        <trkpt lat="28.5152493" lon="105.1447054"><ele>476.11</ele><time>2025-12-31T22:47:16.000Z</time></trkpt>
        <trkpt lat="28.5151574" lon="105.1446666"><ele>474.16</ele><time>2025-12-31T22:47:38.000Z</time></trkpt>
        <trkpt lat="28.5150642" lon="105.144658"><ele>472.13</ele><time>2025-12-31T22:48:04.000Z</time></trkpt>
        <trkpt lat="28.5149846" lon="105.1446085"><ele>467.81</ele><time>2025-12-31T22:48:30.000Z</time></trkpt>
        <trkpt lat="28.5149079" lon="105.1446391"><ele>465.65</ele><time>2025-12-31T22:49:04.000Z</time></trkpt>
        <trkpt lat="28.5148208" lon="105.144657"><ele>460.6</ele><time>2025-12-31T22:49:24.000Z</time></trkpt>
        <trkpt lat="28.5147308" lon="105.1446647"><ele>456.1</ele><time>2025-12-31T22:49:42.000Z</time></trkpt>
        <trkpt lat="28.5146396" lon="105.1446735"><ele>452.81</ele><time>2025-12-31T22:50:08.000Z</time></trkpt>
        <trkpt lat="28.5145544" lon="105.1446379"><ele>449.02</ele><time>2025-12-31T22:50:36.000Z</time></trkpt>
        <trkpt lat="28.514465" lon="105.1446247"><ele>444.98</ele><time>2025-12-31T22:51:08.000Z</time></trkpt>
        <trkpt lat="28.5144477" lon="105.1445418"><ele>438.5</ele><time>2025-12-31T22:51:42.000Z</time></trkpt>
        <trkpt lat="28.5144785" lon="105.1444422"><ele>434.02</ele><time>2025-12-31T22:52:02.000Z</time></trkpt>
        <trkpt lat="28.514536" lon="105.144348"><ele>431.39</ele><time>2025-12-31T22:52:22.000Z</time></trkpt>
        <trkpt lat="28.5146023" lon="105.1442444"><ele>430.86</ele><time>2025-12-31T22:52:42.000Z</time></trkpt>
        <trkpt lat="28.514674" lon="105.1441513"><ele>430.08</ele><time>2025-12-31T22:52:56.000Z</time></trkpt>
        <trkpt lat="28.5147493" lon="105.1440804"><ele>430.24</ele><time>2025-12-31T22:53:34.000Z</time></trkpt>
        <trkpt lat="28.5147021" lon="105.1440847"><ele>436.09</ele><time>2025-12-31T22:54:00.000Z</time></trkpt>
        <trkpt lat="28.5146042" lon="105.1440884"><ele>441.36</ele><time>2025-12-31T22:54:22.000Z</time></trkpt>
        <trkpt lat="28.514493" lon="105.1440835"><ele>441.12</ele><time>2025-12-31T22:54:38.000Z</time></trkpt>
        <trkpt lat="28.5143915" lon="105.1440657"><ele>439.34</ele><time>2025-12-31T22:54:52.000Z</time></trkpt>
        <trkpt lat="28.5142835" lon="105.1440487"><ele>439.25</ele><time>2025-12-31T22:55:08.000Z</time></trkpt>
        <trkpt lat="28.5142009" lon="105.1439948"><ele>438.03</ele><time>2025-12-31T22:55:16.000Z</time></trkpt>
        <trkpt lat="28.5141125" lon="105.1439723"><ele>435.13</ele><time>2025-12-31T22:55:30.000Z</time></trkpt>
        <trkpt lat="28.5140173" lon="105.1439768"><ele>432.64</ele><time>2025-12-31T22:55:46.000Z</time></trkpt>
        <trkpt lat="28.5139223" lon="105.1440122"><ele>429.26</ele><time>2025-12-31T22:56:04.000Z</time></trkpt>
        <trkpt lat="28.5138199" lon="105.1440323"><ele>427.24</ele><time>2025-12-31T22:56:28.000Z</time></trkpt>
        <trkpt lat="28.5137274" lon="105.1440216"><ele>423.06</ele><time>2025-12-31T22:56:46.000Z</time></trkpt>
        <trkpt lat="28.5136366" lon="105.1439864"><ele>417.83</ele><time>2025-12-31T22:57:02.000Z</time></trkpt>
        <trkpt lat="28.5135692" lon="105.1439067"><ele>411.02</ele><time>2025-12-31T22:58:16.000Z</time></trkpt>
        <trkpt lat="28.5135189" lon="105.1439933"><ele>405.66</ele><time>2025-12-31T22:59:58.000Z</time></trkpt>
        <trkpt lat="28.5134268" lon="105.1440299"><ele>400.25</ele><time>2025-12-31T23:00:06.000Z</time></trkpt>
        <trkpt lat="28.5133286" lon="105.1440608"><ele>395.96</ele><time>2025-12-31T23:00:18.000Z</time></trkpt>
        <trkpt lat="28.5132341" lon="105.1440896"><ele>391.17</ele><time>2025-12-31T23:00:30.000Z</time></trkpt>
        <trkpt lat="28.5131362" lon="105.1441192"><ele>386.95</ele><time>2025-12-31T23:00:42.000Z</time></trkpt>
        <trkpt lat="28.513042" lon="105.1441117"><ele>382.85</ele><time>2025-12-31T23:00:52.000Z</time></trkpt>
        <trkpt lat="28.5129743" lon="105.1440381"><ele>379.49</ele><time>2025-12-31T23:01:04.000Z</time></trkpt>
        <trkpt lat="28.5129303" lon="105.1439397"><ele>376.16</ele><time>2025-12-31T23:01:14.000Z</time></trkpt>
        <trkpt lat="28.5129044" lon="105.1438261"><ele>373.36</ele><time>2025-12-31T23:01:26.000Z</time></trkpt>
        <trkpt lat="28.5129317" lon="105.143709"><ele>371.22</ele><time>2025-12-31T23:01:38.000Z</time></trkpt>
        <trkpt lat="28.5129814" lon="105.1436073"><ele>368.31</ele><time>2025-12-31T23:02:00.000Z</time></trkpt>
        <trkpt lat="28.5129595" lon="105.1435147"><ele>365.56</ele><time>2025-12-31T23:02:20.000Z</time></trkpt>
        <trkpt lat="28.5128853" lon="105.1435345"><ele>362.79</ele><time>2025-12-31T23:02:34.000Z</time></trkpt>
        <trkpt lat="28.5127968" lon="105.1435942"><ele>361.76</ele><time>2025-12-31T23:02:45.000Z</time></trkpt>
        <trkpt lat="28.5127068" lon="105.1436725"><ele>360.89</ele><time>2025-12-31T23:02:57.000Z</time></trkpt>
        <trkpt lat="28.5126419" lon="105.1437732"><ele>360.06</ele><time>2025-12-31T23:03:13.000Z</time></trkpt>
        <trkpt lat="28.5126066" lon="105.1438826"><ele>359.68</ele><time>2025-12-31T23:03:29.000Z</time></trkpt>
        <trkpt lat="28.5126104" lon="105.1439913"><ele>359.17</ele><time>2025-12-31T23:03:39.000Z</time></trkpt>
        <trkpt lat="28.5126476" lon="105.1441003"><ele>359.1</ele><time>2025-12-31T23:03:51.000Z</time></trkpt>
        <trkpt lat="28.5127036" lon="105.1442063"><ele>360.11</ele><time>2025-12-31T23:04:03.000Z</time></trkpt>
        <trkpt lat="28.5127472" lon="105.144307"><ele>362.68</ele><time>2025-12-31T23:04:11.000Z</time></trkpt>
        <trkpt lat="28.5127984" lon="105.1444048"><ele>363.9</ele><time>2025-12-31T23:04:21.000Z</time></trkpt>
        <trkpt lat="28.5128388" lon="105.1445068"><ele>364.86</ele><time>2025-12-31T23:04:31.000Z</time></trkpt>
        <trkpt lat="28.5128488" lon="105.1446244"><ele>364.3</ele><time>2025-12-31T23:04:43.000Z</time></trkpt>
        <trkpt lat="28.5128453" lon="105.1447363"><ele>362.73</ele><time>2025-12-31T23:04:51.000Z</time></trkpt>
        <trkpt lat="28.5128297" lon="105.144842"><ele>361.98</ele><time>2025-12-31T23:05:01.000Z</time></trkpt>
        <trkpt lat="28.5127857" lon="105.1449329"><ele>362.27</ele><time>2025-12-31T23:05:15.000Z</time></trkpt>
        <trkpt lat="28.5127192" lon="105.145024"><ele>362.54</ele><time>2025-12-31T23:05:27.000Z</time></trkpt>
        <trkpt lat="28.5126403" lon="105.1451031"><ele>364.22</ele><time>2025-12-31T23:05:37.000Z</time></trkpt>
        <trkpt lat="28.5125703" lon="105.1451817"><ele>366.19</ele><time>2025-12-31T23:05:45.000Z</time></trkpt>
        <trkpt lat="28.5125064" lon="105.1452603"><ele>365.21</ele><time>2025-12-31T23:05:53.000Z</time></trkpt>
        <trkpt lat="28.5124748" lon="105.1453601"><ele>364.26</ele><time>2025-12-31T23:06:01.000Z</time></trkpt>
        <trkpt lat="28.5124504" lon="105.1454657"><ele>364.45</ele><time>2025-12-31T23:06:09.000Z</time></trkpt>
        <trkpt lat="28.5124312" lon="105.1455757"><ele>363.82</ele><time>2025-12-31T23:06:17.000Z</time></trkpt>
        <trkpt lat="28.5124181" lon="105.1456852"><ele>362.61</ele><time>2025-12-31T23:06:25.000Z</time></trkpt>
        <trkpt lat="28.5124067" lon="105.1457914"><ele>362.24</ele><time>2025-12-31T23:06:33.000Z</time></trkpt>
        <trkpt lat="28.5123905" lon="105.1458889"><ele>363.62</ele><time>2025-12-31T23:06:43.000Z</time></trkpt>
        <trkpt lat="28.5123646" lon="105.1459946"><ele>363.29</ele><time>2025-12-31T23:06:57.000Z</time></trkpt>
        <trkpt lat="28.5123284" lon="105.146097"><ele>361.34</ele><time>2025-12-31T23:07:07.000Z</time></trkpt>
        <trkpt lat="28.5123271" lon="105.1461162"><ele>361.35</ele><time>2025-12-31T23:07:11.000Z</time></trkpt>
        <trkpt lat="28.5123057" lon="105.1461905"><ele>359.66</ele><time>2025-12-31T23:07:23.000Z</time></trkpt>
        <trkpt lat="28.5123018" lon="105.1462106"><ele>358.3</ele><time>2025-12-31T23:07:25.000Z</time></trkpt>
        <trkpt lat="28.5122468" lon="105.1462783"><ele>357.85</ele><time>2025-12-31T23:07:39.000Z</time></trkpt>
        <trkpt lat="28.5122125" lon="105.1463263"><ele>358.09</ele><time>2025-12-31T23:07:45.000Z</time></trkpt>
        <trkpt lat="28.5121862" lon="105.1464133"><ele>358.12</ele><time>2025-12-31T23:07:57.000Z</time></trkpt>
        <trkpt lat="28.5121114" lon="105.146438"><ele>357.99</ele><time>2025-12-31T23:08:11.000Z</time></trkpt>
        <trkpt lat="28.5120489" lon="105.1465132"><ele>357.49</ele><time>2025-12-31T23:08:25.000Z</time></trkpt>
        <trkpt lat="28.5119978" lon="105.1466112"><ele>358.77</ele><time>2025-12-31T23:08:35.000Z</time></trkpt>
        <trkpt lat="28.5119552" lon="105.1467225"><ele>357.78</ele><time>2025-12-31T23:08:45.000Z</time></trkpt>
        <trkpt lat="28.511924" lon="105.1468271"><ele>356.31</ele><time>2025-12-31T23:08:53.000Z</time></trkpt>
        <trkpt lat="28.5119113" lon="105.1469454"><ele>353.86</ele><time>2025-12-31T23:09:03.000Z</time></trkpt>
        <trkpt lat="28.5119223" lon="105.1470697"><ele>352.75</ele><time>2025-12-31T23:09:13.000Z</time></trkpt>
        <trkpt lat="28.5119479" lon="105.1471066"><ele>351.9</ele><time>2025-12-31T23:09:15.000Z</time></trkpt>
        <trkpt lat="28.5119919" lon="105.1471748"><ele>352.41</ele><time>2025-12-31T23:09:51.000Z</time></trkpt>
        <trkpt lat="28.5120299" lon="105.1472645"><ele>354.3</ele><time>2025-12-31T23:10:01.000Z</time></trkpt>
        <trkpt lat="28.5120801" lon="105.1473642"><ele>355.23</ele><time>2025-12-31T23:10:11.000Z</time></trkpt>
        <trkpt lat="28.512108" lon="105.1474808"><ele>355.58</ele><time>2025-12-31T23:10:21.000Z</time></trkpt>
        <trkpt lat="28.5121106" lon="105.1475928"><ele>355.22</ele><time>2025-12-31T23:10:29.000Z</time></trkpt>
        <trkpt lat="28.5120859" lon="105.1476988"><ele>354.77</ele><time>2025-12-31T23:10:37.000Z</time></trkpt>
        <trkpt lat="28.5120351" lon="105.1478002"><ele>354.1</ele><time>2025-12-31T23:10:47.000Z</time></trkpt>
        <trkpt lat="28.5119675" lon="105.1478886"><ele>352.28</ele><time>2025-12-31T23:10:57.000Z</time></trkpt>
        <trkpt lat="28.5119381" lon="105.1479323"><ele>351.09</ele><time>2025-12-31T23:11:01.000Z</time></trkpt>
        <trkpt lat="28.5118746" lon="105.1479881"><ele>350.5</ele><time>2025-12-31T23:11:19.000Z</time></trkpt>
        <trkpt lat="28.5117963" lon="105.148052"><ele>352.21</ele><time>2025-12-31T23:11:29.000Z</time></trkpt>
        <trkpt lat="28.511705" lon="105.1481069"><ele>353.38</ele><time>2025-12-31T23:11:39.000Z</time></trkpt>
        <trkpt lat="28.5116053" lon="105.1481458"><ele>353.68</ele><time>2025-12-31T23:11:49.000Z</time></trkpt>
        <trkpt lat="28.511506" lon="105.1481898"><ele>353.86</ele><time>2025-12-31T23:11:59.000Z</time></trkpt>
        <trkpt lat="28.5114141" lon="105.1482319"><ele>353.15</ele><time>2025-12-31T23:12:07.000Z</time></trkpt>
        <trkpt lat="28.5113245" lon="105.1482946"><ele>353.27</ele><time>2025-12-31T23:12:17.000Z</time></trkpt>
        <trkpt lat="28.5112663" lon="105.1483785"><ele>351.53</ele><time>2025-12-31T23:12:29.000Z</time></trkpt>
        <trkpt lat="28.5112237" lon="105.1484828"><ele>350.3</ele><time>2025-12-31T23:12:41.000Z</time></trkpt>
        <trkpt lat="28.5111872" lon="105.1485851"><ele>349.87</ele><time>2025-12-31T23:12:51.000Z</time></trkpt>
        <trkpt lat="28.5111829" lon="105.1486915"><ele>350.1</ele><time>2025-12-31T23:13:01.000Z</time></trkpt>
        <trkpt lat="28.5112201" lon="105.1487974"><ele>350.23</ele><time>2025-12-31T23:13:11.000Z</time></trkpt>
        <trkpt lat="28.5112664" lon="105.1488994"><ele>350.2</ele><time>2025-12-31T23:13:19.000Z</time></trkpt>
        <trkpt lat="28.5113007" lon="105.1490033"><ele>350.63</ele><time>2025-12-31T23:13:27.000Z</time></trkpt>
        <trkpt lat="28.5113139" lon="105.1491123"><ele>351.96</ele><time>2025-12-31T23:13:35.000Z</time></trkpt>
        <trkpt lat="28.5113236" lon="105.1492237"><ele>353.35</ele><time>2025-12-31T23:13:43.000Z</time></trkpt>
        <trkpt lat="28.5113079" lon="105.1493311"><ele>353.26</ele><time>2025-12-31T23:13:51.000Z</time></trkpt>
        <trkpt lat="28.5112731" lon="105.1494393"><ele>353.41</ele><time>2025-12-31T23:13:59.000Z</time></trkpt>
        <trkpt lat="28.5112361" lon="105.1495439"><ele>353.28</ele><time>2025-12-31T23:14:07.000Z</time></trkpt>
        <trkpt lat="28.5111853" lon="105.1496424"><ele>351.86</ele><time>2025-12-31T23:14:15.000Z</time></trkpt>
        <trkpt lat="28.5111068" lon="105.1497298"><ele>350.65</ele><time>2025-12-31T23:14:23.000Z</time></trkpt>
        <trkpt lat="28.511016" lon="105.1497918"><ele>348.55</ele><time>2025-12-31T23:14:31.000Z</time></trkpt>
        <trkpt lat="28.5109416" lon="105.1498587"><ele>346.68</ele><time>2025-12-31T23:14:39.000Z</time></trkpt>
        <trkpt lat="28.5109044" lon="105.1499681"><ele>345.46</ele><time>2025-12-31T23:14:49.000Z</time></trkpt>
        <trkpt lat="28.5109028" lon="105.1500843"><ele>344.7</ele><time>2025-12-31T23:14:57.000Z</time></trkpt>
        <trkpt lat="28.5109168" lon="105.1502041"><ele>344.31</ele><time>2025-12-31T23:15:07.000Z</time></trkpt>
        <trkpt lat="28.5109317" lon="105.1503262"><ele>343.69</ele><time>2025-12-31T23:15:19.000Z</time></trkpt>
        <trkpt lat="28.510956" lon="105.1504442"><ele>343.92</ele><time>2025-12-31T23:15:31.000Z</time></trkpt>
        <trkpt lat="28.5109888" lon="105.1505486"><ele>345</ele><time>2025-12-31T23:15:43.000Z</time></trkpt>
        <trkpt lat="28.5110003" lon="105.1506552"><ele>347.28</ele><time>2025-12-31T23:16:13.000Z</time></trkpt>
        <trkpt lat="28.5109148" lon="105.1506999"><ele>347.5</ele><time>2025-12-31T23:17:19.000Z</time></trkpt>
        <trkpt lat="28.5109058" lon="105.1508127"><ele>347.59</ele><time>2025-12-31T23:17:49.000Z</time></trkpt>
        <trkpt lat="28.5108874" lon="105.1509225"><ele>348.04</ele><time>2025-12-31T23:18:01.000Z</time></trkpt>
        <trkpt lat="28.5108984" lon="105.1510355"><ele>348.41</ele><time>2025-12-31T23:18:13.000Z</time></trkpt>
        <trkpt lat="28.5109257" lon="105.1511413"><ele>349.52</ele><time>2025-12-31T23:18:23.000Z</time></trkpt>
        <trkpt lat="28.510929" lon="105.1512554"><ele>350.45</ele><time>2025-12-31T23:18:33.000Z</time></trkpt>
        <trkpt lat="28.5108744" lon="105.1513327"><ele>349.26</ele><time>2025-12-31T23:18:43.000Z</time></trkpt>
        <trkpt lat="28.5107859" lon="105.1513712"><ele>347.15</ele><time>2025-12-31T23:18:53.000Z</time></trkpt>
        <trkpt lat="28.5107555" lon="105.1514034"><ele>343.89</ele><time>2025-12-31T23:18:55.000Z</time></trkpt>
        <trkpt lat="28.5106916" lon="105.1514474"><ele>341.81</ele><time>2025-12-31T23:19:11.000Z</time></trkpt>
        <trkpt lat="28.5106" lon="105.1514735"><ele>340.47</ele><time>2025-12-31T23:19:29.000Z</time></trkpt>
        <trkpt lat="28.5105299" lon="105.1514848"><ele>339.47</ele><time>2025-12-31T23:19:41.000Z</time></trkpt>
        <trkpt lat="28.5104425" lon="105.1514653"><ele>337.56</ele><time>2025-12-31T23:20:39.000Z</time></trkpt>
        <trkpt lat="28.5103427" lon="105.1514429"><ele>337.61</ele><time>2025-12-31T23:20:51.000Z</time></trkpt>
        <trkpt lat="28.5103109" lon="105.1514325"><ele>336.49</ele><time>2025-12-31T23:20:53.000Z</time></trkpt>
        <trkpt lat="28.5102399" lon="105.1514232"><ele>335.91</ele><time>2025-12-31T23:21:03.000Z</time></trkpt>
        <trkpt lat="28.5101436" lon="105.151415"><ele>336.87</ele><time>2025-12-31T23:21:15.000Z</time></trkpt>
        <trkpt lat="28.5100455" lon="105.1514248"><ele>338.64</ele><time>2025-12-31T23:21:25.000Z</time></trkpt>
        <trkpt lat="28.5099386" lon="105.1514352"><ele>341.16</ele><time>2025-12-31T23:21:35.000Z</time></trkpt>
        <trkpt lat="28.5099016" lon="105.151456"><ele>342.32</ele><time>2025-12-31T23:21:37.000Z</time></trkpt>
        <trkpt lat="28.5098348" lon="105.1514328"><ele>343.66</ele><time>2025-12-31T23:21:55.000Z</time></trkpt>
        <trkpt lat="28.5097353" lon="105.1514387"><ele>342.33</ele><time>2025-12-31T23:22:05.000Z</time></trkpt>
        <trkpt lat="28.5096235" lon="105.1514392"><ele>340.73</ele><time>2025-12-31T23:22:15.000Z</time></trkpt>
        <trkpt lat="28.5095573" lon="105.1514524"><ele>339.86</ele><time>2025-12-31T23:22:21.000Z</time></trkpt>
        <trkpt lat="28.5094614" lon="105.1514652"><ele>339.54</ele><time>2025-12-31T23:22:33.000Z</time></trkpt>
        <trkpt lat="28.5093594" lon="105.1514818"><ele>338.88</ele><time>2025-12-31T23:22:43.000Z</time></trkpt>
        <trkpt lat="28.5093017" lon="105.1515136"><ele>338.7</ele><time>2025-12-31T23:22:49.000Z</time></trkpt>
        <trkpt lat="28.5092134" lon="105.1515281"><ele>338.66</ele><time>2025-12-31T23:23:07.000Z</time></trkpt>
        <trkpt lat="28.5091163" lon="105.1515449"><ele>338.48</ele><time>2025-12-31T23:23:17.000Z</time></trkpt>
        <trkpt lat="28.5090656" lon="105.1515574"><ele>338.39</ele><time>2025-12-31T23:23:21.000Z</time></trkpt>
        <trkpt lat="28.5089841" lon="105.1515745"><ele>338.94</ele><time>2025-12-31T23:23:41.000Z</time></trkpt>
        <trkpt lat="28.5089091" lon="105.1516267"><ele>338.28</ele><time>2025-12-31T23:23:49.000Z</time></trkpt>
        <trkpt lat="28.5088774" lon="105.1516519"><ele>338.34</ele><time>2025-12-31T23:23:53.000Z</time></trkpt>
        <trkpt lat="28.508823" lon="105.1517135"><ele>338.99</ele><time>2025-12-31T23:24:05.000Z</time></trkpt>
        <trkpt lat="28.5087446" lon="105.1517786"><ele>339.73</ele><time>2025-12-31T23:24:15.000Z</time></trkpt>
        <trkpt lat="28.5086476" lon="105.1518199"><ele>340.85</ele><time>2025-12-31T23:24:25.000Z</time></trkpt>
        <trkpt lat="28.5085498" lon="105.151817"><ele>341.55</ele><time>2025-12-31T23:24:35.000Z</time></trkpt>
        <trkpt lat="28.5084488" lon="105.1517873"><ele>342.75</ele><time>2025-12-31T23:24:47.000Z</time></trkpt>
        <trkpt lat="28.5083789" lon="105.1517012"><ele>345.43</ele><time>2025-12-31T23:24:57.000Z</time></trkpt>
        <trkpt lat="28.5083351" lon="105.1515942"><ele>347.7</ele><time>2025-12-31T23:25:09.000Z</time></trkpt>
        <trkpt lat="28.5083196" lon="105.1514771"><ele>349.67</ele><time>2025-12-31T23:25:37.000Z</time></trkpt>
        <trkpt lat="28.5082853" lon="105.1513741"><ele>351.94</ele><time>2025-12-31T23:25:53.000Z</time></trkpt>
        <trkpt lat="28.5082426" lon="105.1512693"><ele>353.57</ele><time>2025-12-31T23:27:15.000Z</time></trkpt>
        <trkpt lat="28.508142" lon="105.1512216"><ele>355.13</ele><time>2025-12-31T23:27:27.000Z</time></trkpt>
        <trkpt lat="28.5080336" lon="105.1512093"><ele>356.55</ele><time>2025-12-31T23:27:37.000Z</time></trkpt>
        <trkpt lat="28.5079463" lon="105.1511711"><ele>357.86</ele><time>2025-12-31T23:27:45.000Z</time></trkpt>
        <trkpt lat="28.5078583" lon="105.1511128"><ele>358.55</ele><time>2025-12-31T23:27:55.000Z</time></trkpt>
        <trkpt lat="28.5077731" lon="105.1510391"><ele>359.51</ele><time>2025-12-31T23:28:05.000Z</time></trkpt>
        <trkpt lat="28.5076873" lon="105.1509622"><ele>360.02</ele><time>2025-12-31T23:28:15.000Z</time></trkpt>
        <trkpt lat="28.5076113" lon="105.1508829"><ele>361.49</ele><time>2025-12-31T23:28:23.000Z</time></trkpt>
        <trkpt lat="28.5075444" lon="105.1507877"><ele>362.49</ele><time>2025-12-31T23:28:31.000Z</time></trkpt>
        <trkpt lat="28.5074694" lon="105.150694"><ele>363.5</ele><time>2025-12-31T23:28:41.000Z</time></trkpt>
        <trkpt lat="28.5074207" lon="105.1505995"><ele>366.02</ele><time>2025-12-31T23:28:47.000Z</time></trkpt>
        <trkpt lat="28.507397" lon="105.1504985"><ele>367.57</ele><time>2025-12-31T23:28:55.000Z</time></trkpt>
        <trkpt lat="28.5073833" lon="105.1503861"><ele>370.19</ele><time>2025-12-31T23:29:03.000Z</time></trkpt>
        <trkpt lat="28.5073829" lon="105.1502669"><ele>372.13</ele><time>2025-12-31T23:29:11.000Z</time></trkpt>
        <trkpt lat="28.5073995" lon="105.1501488"><ele>374.2</ele><time>2025-12-31T23:29:19.000Z</time></trkpt>
        <trkpt lat="28.5074428" lon="105.1500476"><ele>376.35</ele><time>2025-12-31T23:29:27.000Z</time></trkpt>
        <trkpt lat="28.507474" lon="105.149948"><ele>377.35</ele><time>2025-12-31T23:29:35.000Z</time></trkpt>
        <trkpt lat="28.5074884" lon="105.1498407"><ele>378.26</ele><time>2025-12-31T23:29:43.000Z</time></trkpt>
        <trkpt lat="28.5074774" lon="105.1497333"><ele>378.75</ele><time>2025-12-31T23:29:51.000Z</time></trkpt>
        <trkpt lat="28.5074415" lon="105.149623"><ele>380.23</ele><time>2025-12-31T23:29:59.000Z</time></trkpt>
        <trkpt lat="28.5073584" lon="105.1495611"><ele>380.53</ele><time>2025-12-31T23:30:07.000Z</time></trkpt>
        <trkpt lat="28.507264" lon="105.1495281"><ele>381.94</ele><time>2025-12-31T23:30:15.000Z</time></trkpt>
        <trkpt lat="28.5071627" lon="105.1495226"><ele>383.72</ele><time>2025-12-31T23:30:23.000Z</time></trkpt>
        <trkpt lat="28.5070623" lon="105.1495602"><ele>383.77</ele><time>2025-12-31T23:30:33.000Z</time></trkpt>
        <trkpt lat="28.5069774" lon="105.1496312"><ele>382.02</ele><time>2025-12-31T23:30:41.000Z</time></trkpt>
        <trkpt lat="28.5068782" lon="105.1496769"><ele>379.81</ele><time>2025-12-31T23:30:51.000Z</time></trkpt>
        <trkpt lat="28.5067749" lon="105.1496599"><ele>379.23</ele><time>2025-12-31T23:31:01.000Z</time></trkpt>
        <trkpt lat="28.5066855" lon="105.1496191"><ele>379.15</ele><time>2025-12-31T23:31:09.000Z</time></trkpt>
        <trkpt lat="28.5065957" lon="105.1495925"><ele>378.39</ele><time>2025-12-31T23:31:17.000Z</time></trkpt>
        <trkpt lat="28.5065029" lon="105.1495956"><ele>377.36</ele><time>2025-12-31T23:31:25.000Z</time></trkpt>
        <trkpt lat="28.506396" lon="105.1496088"><ele>376.49</ele><time>2025-12-31T23:31:35.000Z</time></trkpt>
        <trkpt lat="28.5063191" lon="105.1496871"><ele>374.9</ele><time>2025-12-31T23:31:45.000Z</time></trkpt>
        <trkpt lat="28.5062811" lon="105.1498096"><ele>374.3</ele><time>2025-12-31T23:31:55.000Z</time></trkpt>
        <trkpt lat="28.5062457" lon="105.1499398"><ele>376.4</ele><time>2025-12-31T23:32:05.000Z</time></trkpt>
        <trkpt lat="28.506176" lon="105.150013"><ele>379.45</ele><time>2025-12-31T23:32:15.000Z</time></trkpt>
        <trkpt lat="28.5060802" lon="105.1499952"><ele>380.28</ele><time>2025-12-31T23:32:27.000Z</time></trkpt>
        <trkpt lat="28.5059778" lon="105.1499365"><ele>382.68</ele><time>2025-12-31T23:32:37.000Z</time></trkpt>
        <trkpt lat="28.5058844" lon="105.1498862"><ele>384.62</ele><time>2025-12-31T23:32:45.000Z</time></trkpt>
        <trkpt lat="28.5057916" lon="105.1498559"><ele>385.9</ele><time>2025-12-31T23:32:53.000Z</time></trkpt>
        <trkpt lat="28.5057014" lon="105.1498667"><ele>385.4</ele><time>2025-12-31T23:33:01.000Z</time></trkpt>
        <trkpt lat="28.5056163" lon="105.1499204"><ele>385.29</ele><time>2025-12-31T23:33:09.000Z</time></trkpt>
        <trkpt lat="28.5055299" lon="105.1499827"><ele>385.33</ele><time>2025-12-31T23:33:17.000Z</time></trkpt>
        <trkpt lat="28.5054276" lon="105.1499868"><ele>385.9</ele><time>2025-12-31T23:33:27.000Z</time></trkpt>
        <trkpt lat="28.5053517" lon="105.1499173"><ele>386.02</ele><time>2025-12-31T23:33:37.000Z</time></trkpt>
        <trkpt lat="28.505316" lon="105.1498146"><ele>387.83</ele><time>2025-12-31T23:33:45.000Z</time></trkpt>
        <trkpt lat="28.5052891" lon="105.1496935"><ele>390.34</ele><time>2025-12-31T23:33:55.000Z</time></trkpt>
        <trkpt lat="28.5052655" lon="105.1495644"><ele>392.97</ele><time>2025-12-31T23:34:05.000Z</time></trkpt>
        <trkpt lat="28.5052489" lon="105.1494386"><ele>397.49</ele><time>2025-12-31T23:34:15.000Z</time></trkpt>
        <trkpt lat="28.5052226" lon="105.1493225"><ele>401.81</ele><time>2025-12-31T23:34:25.000Z</time></trkpt>
        <trkpt lat="28.5051866" lon="105.1492075"><ele>405.27</ele><time>2025-12-31T23:34:35.000Z</time></trkpt>
        <trkpt lat="28.5051597" lon="105.1490993"><ele>408.81</ele><time>2025-12-31T23:34:43.000Z</time></trkpt>
        <trkpt lat="28.5051144" lon="105.1489901"><ele>411.59</ele><time>2025-12-31T23:34:53.000Z</time></trkpt>
        <trkpt lat="28.5050397" lon="105.1488984"><ele>413.44</ele><time>2025-12-31T23:35:03.000Z</time></trkpt>
        <trkpt lat="28.5049469" lon="105.1488291"><ele>414.8</ele><time>2025-12-31T23:35:13.000Z</time></trkpt>
        <trkpt lat="28.504847" lon="105.1487792"><ele>415.86</ele><time>2025-12-31T23:35:23.000Z</time></trkpt>
        <trkpt lat="28.5047548" lon="105.1487451"><ele>415.64</ele><time>2025-12-31T23:35:31.000Z</time></trkpt>
        <trkpt lat="28.5046618" lon="105.1487208"><ele>415.03</ele><time>2025-12-31T23:35:39.000Z</time></trkpt>
        <trkpt lat="28.5045677" lon="105.1486916"><ele>415.27</ele><time>2025-12-31T23:35:47.000Z</time></trkpt>
        <trkpt lat="28.5044784" lon="105.1486562"><ele>415.82</ele><time>2025-12-31T23:35:55.000Z</time></trkpt>
        <trkpt lat="28.5043919" lon="105.1486142"><ele>416.3</ele><time>2025-12-31T23:36:03.000Z</time></trkpt>
        <trkpt lat="28.50429" lon="105.1485936"><ele>415.75</ele><time>2025-12-31T23:36:13.000Z</time></trkpt>
        <trkpt lat="28.5041841" lon="105.1485827"><ele>415.72</ele><time>2025-12-31T23:36:23.000Z</time></trkpt>
        <trkpt lat="28.5040831" lon="105.1485809"><ele>417.78</ele><time>2025-12-31T23:36:31.000Z</time></trkpt>
        <trkpt lat="28.5039913" lon="105.1485594"><ele>420.17</ele><time>2025-12-31T23:36:41.000Z</time></trkpt>
        <trkpt lat="28.5038934" lon="105.1485423"><ele>421.11</ele><time>2025-12-31T23:36:51.000Z</time></trkpt>
        <trkpt lat="28.5037953" lon="105.1485018"><ele>421.16</ele><time>2025-12-31T23:37:01.000Z</time></trkpt>
        <trkpt lat="28.503725" lon="105.1484173"><ele>421.12</ele><time>2025-12-31T23:37:11.000Z</time></trkpt>
        <trkpt lat="28.5037068" lon="105.1482985"><ele>420.71</ele><time>2025-12-31T23:37:19.000Z</time></trkpt>
        <trkpt lat="28.5037144" lon="105.1481774"><ele>420.22</ele><time>2025-12-31T23:37:25.000Z</time></trkpt>
        <trkpt lat="28.5037551" lon="105.1480737"><ele>420.34</ele><time>2025-12-31T23:37:33.000Z</time></trkpt>
        <trkpt lat="28.5038336" lon="105.1479767"><ele>421.54</ele><time>2025-12-31T23:37:43.000Z</time></trkpt>
        <trkpt lat="28.5039176" lon="105.1478975"><ele>421.07</ele><time>2025-12-31T23:37:51.000Z</time></trkpt>
        <trkpt lat="28.5039977" lon="105.1478198"><ele>421.25</ele><time>2025-12-31T23:37:59.000Z</time></trkpt>
        <trkpt lat="28.5040774" lon="105.1477583"><ele>421.35</ele><time>2025-12-31T23:38:07.000Z</time></trkpt>
        <trkpt lat="28.5041738" lon="105.1477168"><ele>421.51</ele><time>2025-12-31T23:38:17.000Z</time></trkpt>
        <trkpt lat="28.5042709" lon="105.1476647"><ele>421.84</ele><time>2025-12-31T23:38:27.000Z</time></trkpt>
        <trkpt lat="28.5043596" lon="105.147599"><ele>422.62</ele><time>2025-12-31T23:38:37.000Z</time></trkpt>
        <trkpt lat="28.5044278" lon="105.1475202"><ele>423.51</ele><time>2025-12-31T23:38:45.000Z</time></trkpt>
        <trkpt lat="28.504471" lon="105.1474094"><ele>423.62</ele><time>2025-12-31T23:38:55.000Z</time></trkpt>
        <trkpt lat="28.5044665" lon="105.1472846"><ele>423.66</ele><time>2025-12-31T23:39:05.000Z</time></trkpt>
        <trkpt lat="28.5044092" lon="105.1471732"><ele>423.17</ele><time>2025-12-31T23:39:15.000Z</time></trkpt>
        <trkpt lat="28.5043176" lon="105.1470928"><ele>423.7</ele><time>2025-12-31T23:39:25.000Z</time></trkpt>
        <trkpt lat="28.5042185" lon="105.1470289"><ele>426.1</ele><time>2025-12-31T23:39:35.000Z</time></trkpt>
        <trkpt lat="28.5041583" lon="105.1469432"><ele>429.01</ele><time>2025-12-31T23:39:43.000Z</time></trkpt>
        <trkpt lat="28.504133" lon="105.1468379"><ele>430.61</ele><time>2025-12-31T23:39:51.000Z</time></trkpt>
        <trkpt lat="28.5041315" lon="105.1467262"><ele>431.71</ele><time>2025-12-31T23:39:59.000Z</time></trkpt>
        <trkpt lat="28.5041325" lon="105.1466094"><ele>433.28</ele><time>2025-12-31T23:40:07.000Z</time></trkpt>
        <trkpt lat="28.5041493" lon="105.1465001"><ele>434.23</ele><time>2025-12-31T23:40:15.000Z</time></trkpt>
        <trkpt lat="28.5041846" lon="105.1463819"><ele>435.37</ele><time>2025-12-31T23:40:23.000Z</time></trkpt>
        <trkpt lat="28.5042239" lon="105.1462764"><ele>435.4</ele><time>2025-12-31T23:40:31.000Z</time></trkpt>
        <trkpt lat="28.5042588" lon="105.1461697"><ele>435.52</ele><time>2025-12-31T23:40:41.000Z</time></trkpt>
        <trkpt lat="28.5042681" lon="105.1460587"><ele>435.39</ele><time>2025-12-31T23:40:51.000Z</time></trkpt>
        <trkpt lat="28.5042137" lon="105.1459795"><ele>435.38</ele><time>2025-12-31T23:40:59.000Z</time></trkpt>
        <trkpt lat="28.5041231" lon="105.1459321"><ele>436.56</ele><time>2025-12-31T23:41:07.000Z</time></trkpt>
        <trkpt lat="28.504025" lon="105.1459125"><ele>437.71</ele><time>2025-12-31T23:41:15.000Z</time></trkpt>
        <trkpt lat="28.503913" lon="105.145938"><ele>437.85</ele><time>2025-12-31T23:41:25.000Z</time></trkpt>
        <trkpt lat="28.503815" lon="105.1459869"><ele>437.57</ele><time>2025-12-31T23:41:33.000Z</time></trkpt>
        <trkpt lat="28.5037259" lon="105.146049"><ele>437.57</ele><time>2025-12-31T23:41:41.000Z</time></trkpt>
        <trkpt lat="28.5036301" lon="105.1460987"><ele>437.05</ele><time>2025-12-31T23:41:49.000Z</time></trkpt>
        <trkpt lat="28.503536" lon="105.1461343"><ele>437.03</ele><time>2025-12-31T23:41:57.000Z</time></trkpt>
        <trkpt lat="28.5034401" lon="105.1461569"><ele>436.81</ele><time>2025-12-31T23:42:05.000Z</time></trkpt>
        <trkpt lat="28.5033457" lon="105.1461798"><ele>435.77</ele><time>2025-12-31T23:42:13.000Z</time></trkpt>
        <trkpt lat="28.5032557" lon="105.14621"><ele>435.3</ele><time>2025-12-31T23:42:21.000Z</time></trkpt>
        <trkpt lat="28.5031693" lon="105.1462518"><ele>434.89</ele><time>2025-12-31T23:42:29.000Z</time></trkpt>
        <trkpt lat="28.5030938" lon="105.1463318"><ele>434.66</ele><time>2025-12-31T23:42:39.000Z</time></trkpt>
        <trkpt lat="28.5030215" lon="105.1464037"><ele>436.89</ele><time>2025-12-31T23:42:47.000Z</time></trkpt>
        <trkpt lat="28.5029562" lon="105.1464791"><ele>439.08</ele><time>2025-12-31T23:42:55.000Z</time></trkpt>
        <trkpt lat="28.5028827" lon="105.1465605"><ele>440.6</ele><time>2025-12-31T23:43:05.000Z</time></trkpt>
        <trkpt lat="28.5027957" lon="105.1466286"><ele>441.53</ele><time>2025-12-31T23:43:15.000Z</time></trkpt>
        <trkpt lat="28.5027067" lon="105.1466747"><ele>442.76</ele><time>2025-12-31T23:43:25.000Z</time></trkpt>
        <trkpt lat="28.502615" lon="105.1466749"><ele>445.21</ele><time>2025-12-31T23:43:35.000Z</time></trkpt>
        <trkpt lat="28.5025344" lon="105.1466244"><ele>447.14</ele><time>2025-12-31T23:43:45.000Z</time></trkpt>
        <trkpt lat="28.5024768" lon="105.1465266"><ele>447.97</ele><time>2025-12-31T23:43:55.000Z</time></trkpt>
        <trkpt lat="28.5024265" lon="105.1464237"><ele>449.48</ele><time>2025-12-31T23:44:03.000Z</time></trkpt>
        <trkpt lat="28.5023812" lon="105.1463187"><ele>449.99</ele><time>2025-12-31T23:44:11.000Z</time></trkpt>
        <trkpt lat="28.5023187" lon="105.1462357"><ele>449.53</ele><time>2025-12-31T23:44:19.000Z</time></trkpt>
        <trkpt lat="28.5022369" lon="105.14618"><ele>448.49</ele><time>2025-12-31T23:44:27.000Z</time></trkpt>
        <trkpt lat="28.502141" lon="105.1461529"><ele>447.08</ele><time>2025-12-31T23:44:35.000Z</time></trkpt>
        <trkpt lat="28.5020445" lon="105.1461698"><ele>445.67</ele><time>2025-12-31T23:44:43.000Z</time></trkpt>
        <trkpt lat="28.5019704" lon="105.1462402"><ele>444.79</ele><time>2025-12-31T23:44:51.000Z</time></trkpt>
        <trkpt lat="28.5019226" lon="105.1463375"><ele>444.12</ele><time>2025-12-31T23:44:59.000Z</time></trkpt>
        <trkpt lat="28.5018805" lon="105.1464385"><ele>444.24</ele><time>2025-12-31T23:45:07.000Z</time></trkpt>
        <trkpt lat="28.5018364" lon="105.1465357"><ele>445.8</ele><time>2025-12-31T23:45:15.000Z</time></trkpt>
        <trkpt lat="28.5017807" lon="105.1466237"><ele>446.46</ele><time>2025-12-31T23:45:23.000Z</time></trkpt>
        <trkpt lat="28.5016962" lon="105.1466715"><ele>447.02</ele><time>2025-12-31T23:45:31.000Z</time></trkpt>
        <trkpt lat="28.5015949" lon="105.1466768"><ele>446.81</ele><time>2025-12-31T23:45:41.000Z</time></trkpt>
        <trkpt lat="28.5015127" lon="105.146611"><ele>447.14</ele><time>2025-12-31T23:45:55.000Z</time></trkpt>
        <trkpt lat="28.5014432" lon="105.1465074"><ele>448.22</ele><time>2025-12-31T23:46:07.000Z</time></trkpt>
        <trkpt lat="28.5013816" lon="105.1463974"><ele>449.13</ele><time>2025-12-31T23:46:19.000Z</time></trkpt>
        <trkpt lat="28.5013303" lon="105.1462898"><ele>450.28</ele><time>2025-12-31T23:46:29.000Z</time></trkpt>
        <trkpt lat="28.5012725" lon="105.1461936"><ele>452.36</ele><time>2025-12-31T23:46:41.000Z</time></trkpt>
        <trkpt lat="28.5012206" lon="105.1461038"><ele>455.13</ele><time>2025-12-31T23:46:51.000Z</time></trkpt>
        <trkpt lat="28.5011708" lon="105.1460046"><ele>457.28</ele><time>2025-12-31T23:47:01.000Z</time></trkpt>
        <trkpt lat="28.5011283" lon="105.1459034"><ele>460.32</ele><time>2025-12-31T23:47:11.000Z</time></trkpt>
        <trkpt lat="28.5011139" lon="105.145799"><ele>463.18</ele><time>2025-12-31T23:47:21.000Z</time></trkpt>
        <trkpt lat="28.5011252" lon="105.1456852"><ele>466.72</ele><time>2025-12-31T23:47:27.000Z</time></trkpt>
        <trkpt lat="28.5011629" lon="105.1455711"><ele>466.65</ele><time>2025-12-31T23:47:37.000Z</time></trkpt>
        <trkpt lat="28.5011953" lon="105.1454676"><ele>465.71</ele><time>2025-12-31T23:47:43.000Z</time></trkpt>
        <trkpt lat="28.5012194" lon="105.1453611"><ele>464.32</ele><time>2025-12-31T23:47:51.000Z</time></trkpt>
        <trkpt lat="28.5012641" lon="105.1452626"><ele>465.33</ele><time>2025-12-31T23:47:59.000Z</time></trkpt>
        <trkpt lat="28.5013124" lon="105.1451633"><ele>466.49</ele><time>2025-12-31T23:48:07.000Z</time></trkpt>
        <trkpt lat="28.5013598" lon="105.1450615"><ele>467.72</ele><time>2025-12-31T23:48:17.000Z</time></trkpt>
        <trkpt lat="28.5013965" lon="105.1449494"><ele>468.26</ele><time>2025-12-31T23:48:27.000Z</time></trkpt>
        <trkpt lat="28.5014322" lon="105.1448356"><ele>470.48</ele><time>2025-12-31T23:48:39.000Z</time></trkpt>
        <trkpt lat="28.501448" lon="105.1447299"><ele>470.78</ele><time>2025-12-31T23:48:47.000Z</time></trkpt>
        <trkpt lat="28.5014521" lon="105.1446095"><ele>471.57</ele><time>2025-12-31T23:48:57.000Z</time></trkpt>
        <trkpt lat="28.5014514" lon="105.1445008"><ele>471.67</ele><time>2025-12-31T23:49:05.000Z</time></trkpt>
        <trkpt lat="28.5014554" lon="105.1443937"><ele>472.12</ele><time>2025-12-31T23:49:13.000Z</time></trkpt>
        <trkpt lat="28.5014678" lon="105.1442884"><ele>472.2</ele><time>2025-12-31T23:49:21.000Z</time></trkpt>
        <trkpt lat="28.5014787" lon="105.1441695"><ele>472.03</ele><time>2025-12-31T23:49:31.000Z</time></trkpt>
        <trkpt lat="28.501431" lon="105.1440667"><ele>470.87</ele><time>2025-12-31T23:49:43.000Z</time></trkpt>
        <trkpt lat="28.5013468" lon="105.1439993"><ele>474.46</ele><time>2025-12-31T23:49:53.000Z</time></trkpt>
        <trkpt lat="28.5012558" lon="105.1439524"><ele>479.12</ele><time>2025-12-31T23:50:01.000Z</time></trkpt>
        <trkpt lat="28.5011544" lon="105.1439071"><ele>482.27</ele><time>2025-12-31T23:50:09.000Z</time></trkpt>
        <trkpt lat="28.5010894" lon="105.1438974"><ele>483.01</ele><time>2025-12-31T23:50:15.000Z</time></trkpt>
        <trkpt lat="28.5010018" lon="105.1438472"><ele>480.66</ele><time>2025-12-31T23:53:03.000Z</time></trkpt>
        <trkpt lat="28.5009098" lon="105.1437853"><ele>477.18</ele><time>2025-12-31T23:53:15.000Z</time></trkpt>
        <trkpt lat="28.5008374" lon="105.1437124"><ele>473.88</ele><time>2025-12-31T23:53:25.000Z</time></trkpt>
        <trkpt lat="28.5007597" lon="105.143644"><ele>471.29</ele><time>2025-12-31T23:53:35.000Z</time></trkpt>
        <trkpt lat="28.5006789" lon="105.1435826"><ele>469.28</ele><time>2025-12-31T23:53:45.000Z</time></trkpt>
        <trkpt lat="28.5005978" lon="105.1435275"><ele>467.48</ele><time>2025-12-31T23:53:55.000Z</time></trkpt>
        <trkpt lat="28.5005336" lon="105.1434559"><ele>465.02</ele><time>2025-12-31T23:54:08.000Z</time></trkpt>
        <trkpt lat="28.5005336" lon="105.1434559"><ele>465.02</ele><time>2025-12-31T23:54:21.000Z</time></trkpt>
      </trkseg>
  </trk>
</gpx>